CPA102 YBBN-VHHX
Flight info
| Callsign | CPA102 |
|---|---|
| Flight time | N/A |
| Altitude | 36000 |
| Route | BIXAD Q67 RUMKA/N0469F380 Q67 UPOLO DCT MEMOS B473 SAMGE/N0458F400 B473 LIGPA DCT MIA W16 AVMUP A461 NOMAN |
| Aircraft | A343/H-SDE2E3FGHIJ4J5M1RWXY/LB1D1 |
Departure
| Time | 2026-05-06 13:55 |
|---|---|
| Airport | Brisbane International Airport (YBBN) |
Arrival
| Time | N/A |
|---|---|
| Airport | Hong Kong International Airport Kai Tak (VHHX) |
| Time | Latitude | Longitude | Altitude | Speed | Heading |
|---|---|---|---|---|---|
| 2026-05-06 13:03 | -27.39027 | 153.11893 | 30 ft | 0 kts | 207° |
| 2026-05-06 13:33 | -27.39011 | 153.11904 | 31 ft | 4 kts | 238° |
| 2026-05-06 13:34 | -27.39009 | 153.11918 | 25 ft | 4 kts | 328° |
| 2026-05-06 13:34 | -27.39030 | 153.11934 | 25 ft | 4 kts | 295° |
| 2026-05-06 13:34 | -27.39030 | 153.11945 | 25 ft | 4 kts | 217° |
| 2026-05-06 13:34 | -27.39012 | 153.11953 | 31 ft | 4 kts | 140° |
| 2026-05-06 13:35 | -27.38999 | 153.11931 | 25 ft | 4 kts | 117° |
| 2026-05-06 13:35 | -27.38987 | 153.11904 | 29 ft | 4 kts | 117° |
| 2026-05-06 13:35 | -27.38975 | 153.11877 | 25 ft | 4 kts | 117° |
| 2026-05-06 13:35 | -27.38970 | 153.11866 | 25 ft | 0 kts | 117° |
| 2026-05-06 13:39 | -27.38972 | 153.11869 | 25 ft | 2 kts | 117° |
| 2026-05-06 13:39 | -27.38984 | 153.11898 | 25 ft | 5 kts | 117° |
| 2026-05-06 13:39 | -27.39000 | 153.11932 | 30 ft | 5 kts | 116° |
| 2026-05-06 13:40 | -27.39007 | 153.11969 | 27 ft | 5 kts | 87° |
| 2026-05-06 13:40 | -27.39003 | 153.12006 | 25 ft | 5 kts | 88° |
| 2026-05-06 13:40 | -27.39012 | 153.12042 | 29 ft | 5 kts | 115° |
| 2026-05-06 13:40 | -27.39027 | 153.12076 | 30 ft | 5 kts | 116° |
| 2026-05-06 13:41 | -27.39042 | 153.12112 | 30 ft | 5 kts | 109° |
| 2026-05-06 13:41 | -27.39030 | 153.12164 | 27 ft | 10 kts | 51° |
| 2026-05-06 13:41 | -27.38947 | 153.12219 | 28 ft | 17 kts | 27° |
| 2026-05-06 13:41 | -27.38839 | 153.12280 | 30 ft | 17 kts | 27° |
| 2026-05-06 13:42 | -27.38734 | 153.12340 | 26 ft | 17 kts | 27° |
| 2026-05-06 13:42 | -27.38627 | 153.12401 | 31 ft | 17 kts | 27° |
| 2026-05-06 13:42 | -27.38525 | 153.12460 | 31 ft | 17 kts | 27° |
| 2026-05-06 13:42 | -27.38432 | 153.12513 | 30 ft | 1 kts | 26° |
| 2026-05-06 13:43 | -27.38428 | 153.12515 | 25 ft | 1 kts | 26° |
| 2026-05-06 13:43 | -27.38410 | 153.12526 | 28 ft | 7 kts | 27° |
| 2026-05-06 13:44 | -27.38352 | 153.12559 | 28 ft | 10 kts | 27° |
| 2026-05-06 13:44 | -27.38282 | 153.12599 | 31 ft | 12 kts | 27° |
| 2026-05-06 13:44 | -27.38203 | 153.12644 | 27 ft | 13 kts | 27° |
| 2026-05-06 13:44 | -27.38121 | 153.12692 | 28 ft | 13 kts | 27° |
| 2026-05-06 13:45 | -27.38039 | 153.12739 | 29 ft | 13 kts | 27° |
| 2026-05-06 13:45 | -27.37871 | 153.12808 | 28 ft | 12 kts | 347° |
| 2026-05-06 13:45 | -27.37821 | 153.12736 | 25 ft | 12 kts | 288° |
| 2026-05-06 13:46 | -27.37795 | 153.12647 | 31 ft | 13 kts | 293° |
| 2026-05-06 13:46 | -27.37751 | 153.12543 | 27 ft | 16 kts | 297° |
| 2026-05-06 13:46 | -27.37694 | 153.12418 | 29 ft | 20 kts | 297° |
| 2026-05-06 13:46 | -27.37625 | 153.12273 | 29 ft | 22 kts | 297° |
| 2026-05-06 13:47 | -27.37557 | 153.12122 | 28 ft | 21 kts | 296° |
| 2026-05-06 13:47 | -27.37491 | 153.11975 | 31 ft | 21 kts | 297° |
| 2026-05-06 13:47 | -27.37426 | 153.11833 | 29 ft | 20 kts | 297° |
| 2026-05-06 13:47 | -27.37363 | 153.11694 | 30 ft | 20 kts | 297° |
| 2026-05-06 13:48 | -27.37305 | 153.11567 | 29 ft | 15 kts | 296° |
| 2026-05-06 13:48 | -27.37254 | 153.11507 | 30 ft | 10 kts | 343° |
| 2026-05-06 13:48 | -27.37196 | 153.11531 | 30 ft | 9 kts | 30° |
| 2026-05-06 13:48 | -27.37140 | 153.11565 | 31 ft | 9 kts | 26° |
| 2026-05-06 13:49 | -27.37081 | 153.11596 | 29 ft | 8 kts | 50° |
| 2026-05-06 13:49 | -27.37080 | 153.11660 | 30 ft | 11 kts | 95° |
| 2026-05-06 13:49 | -27.37040 | 153.11732 | 27 ft | 13 kts | 32° |
| 2026-05-06 13:49 | -27.36949 | 153.11784 | 27 ft | 16 kts | 27° |
| 2026-05-06 13:50 | -27.36838 | 153.11847 | 26 ft | 19 kts | 26° |
| 2026-05-06 13:50 | -27.36718 | 153.11915 | 27 ft | 20 kts | 26° |
| 2026-05-06 13:50 | -27.36594 | 153.11987 | 28 ft | 21 kts | 27° |
| 2026-05-06 13:50 | -27.36463 | 153.12061 | 28 ft | 21 kts | 27° |
| 2026-05-06 13:51 | -27.36328 | 153.12138 | 30 ft | 22 kts | 26° |
| 2026-05-06 13:51 | -27.36191 | 153.12216 | 29 ft | 22 kts | 27° |
| 2026-05-06 13:51 | -27.36052 | 153.12296 | 30 ft | 23 kts | 27° |
| 2026-05-06 13:51 | -27.35932 | 153.12365 | 28 ft | 12 kts | 27° |
| 2026-05-06 13:52 | -27.35850 | 153.12372 | 28 ft | 13 kts | 339° |
| 2026-05-06 13:52 | -27.35771 | 153.12315 | 31 ft | 13 kts | 324° |
| 2026-05-06 13:52 | -27.35731 | 153.12283 | 28 ft | 5 kts | 324° |
| 2026-05-06 13:52 | -27.35698 | 153.12252 | 31 ft | 7 kts | 317° |
| 2026-05-06 13:53 | -27.35672 | 153.12213 | 30 ft | 3 kts | 288° |
| 2026-05-06 13:53 | -27.35680 | 153.12192 | 30 ft | 3 kts | 236° |
| 2026-05-06 13:53 | -27.35698 | 153.12175 | 30 ft | 4 kts | 215° |
| 2026-05-06 13:53 | -27.35723 | 153.12160 | 26 ft | 4 kts | 207° |
| 2026-05-06 13:54 | -27.35763 | 153.12136 | 27 ft | 17 kts | 207° |
| 2026-05-06 13:54 | -27.36037 | 153.11977 | 28 ft | 71 kts | 207° |
| 2026-05-06 13:54 | -27.36620 | 153.11645 | 28 ft | 116 kts | 207° |
| 2026-05-06 13:54 | -27.37456 | 153.11168 | 27 ft | 152 kts | 207° |
| 2026-05-06 13:55 | -27.38419 | 153.10614 | 439 ft | 150 kts | 207° |
| 2026-05-06 13:55 | -27.39384 | 153.10057 | 661 ft | 169 kts | 206° |
| 2026-05-06 13:55 | -27.40470 | 153.09441 | 1036 ft | 176 kts | 206° |
| 2026-05-06 13:55 | -27.41605 | 153.08797 | 1353 ft | 192 kts | 206° |
| 2026-05-06 13:56 | -27.42861 | 153.08082 | 1606 ft | 214 kts | 206° |
| 2026-05-06 13:56 | -27.44281 | 153.07274 | 1892 ft | 239 kts | 205° |
| 2026-05-06 13:56 | -27.45750 | 153.06393 | 2557 ft | 246 kts | 212° |
| 2026-05-06 13:56 | -27.46943 | 153.05009 | 3254 ft | 251 kts | 244° |
| 2026-05-06 13:57 | -27.47368 | 153.03115 | 4057 ft | 251 kts | 264° |
| 2026-05-06 13:57 | -27.47520 | 153.01154 | 4907 ft | 251 kts | 265° |
| 2026-05-06 13:57 | -27.47656 | 152.99178 | 5575 ft | 255 kts | 265° |
| 2026-05-06 13:57 | -27.47786 | 152.97177 | 5916 ft | 258 kts | 267° |
| 2026-05-06 13:58 | -27.47553 | 152.95180 | 5993 ft | 260 kts | 289° |
| 2026-05-06 13:58 | -27.46593 | 152.93470 | 5997 ft | 261 kts | 315° |
| 2026-05-06 13:58 | -27.45115 | 152.92277 | 5994 ft | 263 kts | 329° |
| 2026-05-06 13:58 | -27.43427 | 152.91538 | 5997 ft | 267 kts | 349° |
| 2026-05-06 13:59 | -27.41578 | 152.91651 | 6246 ft | 271 kts | 16° |
| 2026-05-06 13:59 | -27.39927 | 152.92717 | 6666 ft | 282 kts | 45° |
| 2026-05-06 13:59 | -27.38694 | 152.94448 | 7396 ft | 284 kts | 54° |
| 2026-05-06 13:59 | -27.37563 | 152.96284 | 8151 ft | 287 kts | 54° |
| 2026-05-06 14:00 | -27.36421 | 152.98143 | 8870 ft | 290 kts | 53° |
| 2026-05-06 14:00 | -27.35259 | 153.00016 | 9582 ft | 293 kts | 53° |
| 2026-05-06 14:00 | -27.34082 | 153.01902 | 10229 ft | 298 kts | 53° |
| 2026-05-06 14:00 | -27.32857 | 153.03857 | 10518 ft | 314 kts | 52° |
| 2026-05-06 14:01 | -27.31576 | 153.05893 | 10781 ft | 331 kts | 52° |
| 2026-05-06 14:01 | -27.30217 | 153.08055 | 11031 ft | 347 kts | 52° |
| 2026-05-06 14:01 | -27.28632 | 153.10142 | 11381 ft | 355 kts | 41° |
| 2026-05-06 14:01 | -27.26781 | 153.12016 | 11891 ft | 361 kts | 38° |
| 2026-05-06 14:02 | -27.24865 | 153.13873 | 12483 ft | 365 kts | 38° |
| 2026-05-06 14:02 | -27.22933 | 153.15742 | 13097 ft | 368 kts | 37° |
| 2026-05-06 14:02 | -27.20817 | 153.17351 | 13656 ft | 367 kts | 22° |
| 2026-05-06 14:02 | -27.18432 | 153.18370 | 14232 ft | 367 kts | 14° |
| 2026-05-06 14:03 | -27.15985 | 153.19230 | 14789 ft | 370 kts | 13° |
| 2026-05-06 14:03 | -27.13546 | 153.20074 | 15337 ft | 373 kts | 13° |
| 2026-05-06 14:03 | -27.11058 | 153.20940 | 15888 ft | 376 kts | 13° |
| 2026-05-06 14:03 | -27.08552 | 153.21818 | 16455 ft | 378 kts | 13° |
| 2026-05-06 14:04 | -27.06039 | 153.22702 | 17014 ft | 380 kts | 13° |
| 2026-05-06 14:04 | -27.03488 | 153.23544 | 17546 ft | 382 kts | 8° |
| 2026-05-06 14:04 | -27.00874 | 153.23929 | 18076 ft | 379 kts | 358° |
| 2026-05-06 14:04 | -26.98235 | 153.24015 | 18580 ft | 380 kts | 356° |
| 2026-05-06 14:05 | -26.95583 | 153.24061 | 19051 ft | 383 kts | 356° |
| 2026-05-06 14:05 | -26.92914 | 153.24110 | 19546 ft | 384 kts | 355° |
| 2026-05-06 14:05 | -26.90269 | 153.24161 | 20021 ft | 386 kts | 355° |
| 2026-05-06 14:05 | -26.87581 | 153.24215 | 20507 ft | 388 kts | 355° |
| 2026-05-06 14:06 | -26.84878 | 153.24272 | 20970 ft | 389 kts | 355° |
| 2026-05-06 14:06 | -26.82170 | 153.24330 | 21449 ft | 390 kts | 354° |
| 2026-05-06 14:06 | -26.79454 | 153.24389 | 21970 ft | 390 kts | 354° |
| 2026-05-06 14:06 | -26.76731 | 153.24448 | 22400 ft | 393 kts | 354° |
| 2026-05-06 14:07 | -26.73994 | 153.24507 | 22811 ft | 395 kts | 354° |
| 2026-05-06 14:07 | -26.71236 | 153.24547 | 23233 ft | 396 kts | 352° |
| 2026-05-06 14:07 | -26.68510 | 153.24271 | 23645 ft | 390 kts | 342° |
| 2026-05-06 14:07 | -26.65915 | 153.23597 | 23988 ft | 389 kts | 338° |
| 2026-05-06 14:08 | -26.63314 | 153.22759 | 24312 ft | 389 kts | 336° |
| 2026-05-06 14:08 | -26.60726 | 153.21845 | 24658 ft | 390 kts | 335° |
| 2026-05-06 14:08 | -26.58134 | 153.20904 | 25007 ft | 392 kts | 335° |
| 2026-05-06 14:08 | -26.55538 | 153.19962 | 25321 ft | 394 kts | 335° |
| 2026-05-06 14:09 | -26.52920 | 153.19025 | 25639 ft | 396 kts | 335° |
| 2026-05-06 14:09 | -26.50286 | 153.18096 | 25965 ft | 398 kts | 335° |
| 2026-05-06 14:09 | -26.47635 | 153.17172 | 26291 ft | 400 kts | 335° |
| 2026-05-06 14:09 | -26.45001 | 153.16262 | 26611 ft | 402 kts | 335° |
| 2026-05-06 14:10 | -26.42326 | 153.15339 | 26919 ft | 404 kts | 335° |
| 2026-05-06 14:10 | -26.39637 | 153.14412 | 27220 ft | 406 kts | 334° |
| 2026-05-06 14:10 | -26.36930 | 153.13480 | 27531 ft | 407 kts | 334° |
| 2026-05-06 14:10 | -26.34220 | 153.12547 | 27853 ft | 409 kts | 334° |
| 2026-05-06 14:11 | -26.31501 | 153.11611 | 28158 ft | 409 kts | 334° |
| 2026-05-06 14:11 | -26.28854 | 153.10491 | 28437 ft | 404 kts | 327° |
| 2026-05-06 14:11 | -26.26409 | 153.09012 | 28721 ft | 398 kts | 320° |
| 2026-05-06 14:11 | -26.24096 | 153.07290 | 28835 ft | 401 kts | 318° |
| 2026-05-06 14:12 | -26.21822 | 153.05483 | 29042 ft | 403 kts | 317° |
| 2026-05-06 14:12 | -26.19588 | 153.03653 | 29334 ft | 404 kts | 316° |
| 2026-05-06 14:12 | -26.17336 | 153.01789 | 29599 ft | 405 kts | 316° |
| 2026-05-06 14:12 | -26.15072 | 152.99912 | 29878 ft | 406 kts | 316° |
| 2026-05-06 14:13 | -26.12799 | 152.98037 | 30137 ft | 408 kts | 316° |
| 2026-05-06 14:13 | -26.10516 | 152.96163 | 30348 ft | 409 kts | 316° |
| 2026-05-06 14:13 | -26.08209 | 152.94293 | 30569 ft | 411 kts | 317° |
| 2026-05-06 14:13 | -26.05891 | 152.92429 | 30809 ft | 412 kts | 317° |
| 2026-05-06 14:14 | -26.03562 | 152.90562 | 31009 ft | 413 kts | 317° |
| 2026-05-06 14:14 | -26.01227 | 152.88693 | 31218 ft | 414 kts | 317° |
| 2026-05-06 14:14 | -25.98925 | 152.86852 | 31493 ft | 413 kts | 317° |
| 2026-05-06 14:14 | -25.96600 | 152.84990 | 31821 ft | 411 kts | 316° |
| 2026-05-06 14:15 | -25.94281 | 152.83137 | 32135 ft | 410 kts | 316° |
| 2026-05-06 14:15 | -25.91976 | 152.81296 | 32413 ft | 408 kts | 316° |
| 2026-05-06 14:15 | -25.89674 | 152.79454 | 32663 ft | 407 kts | 316° |
| 2026-05-06 14:15 | -25.87376 | 152.77614 | 32947 ft | 406 kts | 316° |
| 2026-05-06 14:16 | -25.85088 | 152.75782 | 33247 ft | 405 kts | 316° |
| 2026-05-06 14:16 | -25.82803 | 152.73954 | 33520 ft | 404 kts | 316° |
| 2026-05-06 14:16 | -25.80553 | 152.72156 | 33775 ft | 403 kts | 316° |
| 2026-05-06 14:16 | -25.78286 | 152.70344 | 34061 ft | 401 kts | 316° |
| 2026-05-06 14:17 | -25.76021 | 152.68536 | 34277 ft | 400 kts | 316° |
| 2026-05-06 14:17 | -25.73764 | 152.66736 | 34495 ft | 399 kts | 316° |
| 2026-05-06 14:17 | -25.71517 | 152.64946 | 34715 ft | 398 kts | 316° |
| 2026-05-06 14:17 | -25.69273 | 152.63156 | 34923 ft | 396 kts | 316° |
| 2026-05-06 14:18 | -25.67039 | 152.61375 | 35117 ft | 395 kts | 316° |
| 2026-05-06 14:18 | -25.64809 | 152.59599 | 35319 ft | 394 kts | 316° |
| 2026-05-06 14:18 | -25.62588 | 152.57830 | 35537 ft | 393 kts | 316° |
| 2026-05-06 14:18 | -25.60405 | 152.56093 | 35729 ft | 391 kts | 316° |
| 2026-05-06 14:19 | -25.58195 | 152.54335 | 35893 ft | 391 kts | 316° |
| 2026-05-06 14:19 | -25.55987 | 152.52579 | 36031 ft | 391 kts | 316° |
| 2026-05-06 14:19 | -25.51576 | 152.49073 | 36086 ft | 387 kts | 316° |
| 2026-05-06 14:20 | -25.47216 | 152.45615 | 36084 ft | 385 kts | 316° |
| 2026-05-06 14:20 | -25.42861 | 152.42161 | 36084 ft | 385 kts | 316° |
| 2026-05-06 14:21 | -25.38532 | 152.38729 | 36083 ft | 385 kts | 316° |
| 2026-05-06 14:21 | -25.34174 | 152.35279 | 36084 ft | 385 kts | 316° |
| 2026-05-06 14:22 | -25.29812 | 152.31830 | 36083 ft | 385 kts | 316° |
| 2026-05-06 14:22 | -25.25451 | 152.28384 | 36076 ft | 386 kts | 317° |
| 2026-05-06 14:23 | -25.21079 | 152.24931 | 36083 ft | 386 kts | 317° |
| 2026-05-06 14:23 | -25.16732 | 152.21504 | 36085 ft | 386 kts | 317° |
| 2026-05-06 14:24 | -25.12355 | 152.18056 | 36080 ft | 386 kts | 317° |
| 2026-05-06 14:24 | -25.07982 | 152.14615 | 36083 ft | 386 kts | 317° |
| 2026-05-06 14:25 | -25.03608 | 152.11176 | 36083 ft | 386 kts | 317° |
| 2026-05-06 14:25 | -24.99224 | 152.07738 | 36081 ft | 386 kts | 317° |
| 2026-05-06 14:26 | -24.94875 | 152.04331 | 36084 ft | 386 kts | 316° |
| 2026-05-06 14:26 | -24.90484 | 152.00907 | 36083 ft | 386 kts | 317° |
| 2026-05-06 14:27 | -24.86103 | 151.97477 | 36080 ft | 387 kts | 317° |
| 2026-05-06 14:27 | -24.81716 | 151.94047 | 36080 ft | 386 kts | 317° |
| 2026-05-06 14:28 | -24.77329 | 151.90623 | 36083 ft | 387 kts | 317° |
| 2026-05-06 14:28 | -24.72971 | 151.87226 | 36077 ft | 386 kts | 317° |
| 2026-05-06 14:29 | -24.68588 | 151.83808 | 36074 ft | 386 kts | 317° |
| 2026-05-06 14:29 | -24.64202 | 151.80391 | 36080 ft | 386 kts | 317° |
| 2026-05-06 14:30 | -24.59810 | 151.76976 | 36072 ft | 387 kts | 317° |
| 2026-05-06 14:30 | -24.55441 | 151.73582 | 36076 ft | 387 kts | 317° |
| 2026-05-06 14:31 | -24.51045 | 151.70169 | 36078 ft | 387 kts | 317° |
| 2026-05-06 14:31 | -24.47385 | 151.67331 | 36075 ft | 387 kts | 317° |
| 2026-05-06 14:32 | -24.42986 | 151.63923 | 36074 ft | 387 kts | 317° |
| 2026-05-06 14:32 | -24.38582 | 151.60515 | 36074 ft | 387 kts | 317° |
| 2026-05-06 14:33 | -24.33469 | 151.56559 | 36072 ft | 387 kts | 317° |
| 2026-05-06 14:33 | -24.29075 | 151.53163 | 36072 ft | 387 kts | 317° |
| 2026-05-06 14:34 | -24.25416 | 151.50336 | 36072 ft | 387 kts | 318° |
| 2026-05-06 14:34 | -24.21010 | 151.46939 | 36069 ft | 388 kts | 318° |
| 2026-05-06 14:35 | -24.16598 | 151.43537 | 36072 ft | 388 kts | 317° |
| 2026-05-06 14:35 | -24.12174 | 151.40131 | 36069 ft | 388 kts | 318° |
| 2026-05-06 14:36 | -24.07787 | 151.36755 | 36064 ft | 388 kts | 318° |
| 2026-05-06 14:36 | -24.03366 | 151.33352 | 36072 ft | 388 kts | 318° |
| 2026-05-06 14:37 | -23.98953 | 151.29962 | 36063 ft | 387 kts | 318° |
| 2026-05-06 14:37 | -23.94550 | 151.26582 | 36042 ft | 387 kts | 318° |
| 2026-05-06 14:38 | -23.90166 | 151.23215 | 36047 ft | 388 kts | 318° |
| 2026-05-06 14:38 | -23.85741 | 151.19830 | 36050 ft | 389 kts | 319° |
| 2026-05-06 14:39 | -23.81094 | 151.16726 | 36046 ft | 393 kts | 322° |
| 2026-05-06 14:39 | -23.76333 | 151.13789 | 36047 ft | 393 kts | 323° |
| 2026-05-06 14:40 | -23.71606 | 151.10822 | 36051 ft | 390 kts | 322° |
| 2026-05-06 14:40 | -23.66951 | 151.07842 | 36049 ft | 392 kts | 322° |
| 2026-05-06 14:41 | -23.62243 | 151.04833 | 36037 ft | 392 kts | 322° |
| 2026-05-06 14:41 | -23.57534 | 151.01818 | 36059 ft | 393 kts | 322° |
| 2026-05-06 14:42 | -23.52816 | 150.98799 | 36055 ft | 393 kts | 322° |
| 2026-05-06 14:42 | -23.48140 | 150.95809 | 36056 ft | 392 kts | 322° |
| 2026-05-06 14:43 | -23.43429 | 150.92801 | 36053 ft | 393 kts | 322° |
| 2026-05-06 14:43 | -23.38717 | 150.89792 | 36054 ft | 393 kts | 322° |
| 2026-05-06 14:44 | -23.34007 | 150.86785 | 36053 ft | 393 kts | 322° |
| 2026-05-06 14:45 | -23.26932 | 150.82273 | 36056 ft | 394 kts | 322° |
| 2026-05-06 14:45 | -23.22229 | 150.79281 | 36053 ft | 394 kts | 322° |
| 2026-05-06 14:46 | -23.17490 | 150.76273 | 36048 ft | 394 kts | 322° |
| 2026-05-06 14:46 | -23.12756 | 150.73267 | 36041 ft | 394 kts | 322° |
| 2026-05-06 14:47 | -23.08026 | 150.70263 | 36057 ft | 394 kts | 322° |
| 2026-05-06 14:47 | -23.03332 | 150.67284 | 36046 ft | 394 kts | 322° |
| 2026-05-06 14:48 | -22.98602 | 150.64285 | 36047 ft | 394 kts | 322° |
| 2026-05-06 14:48 | -22.93864 | 150.61282 | 36046 ft | 395 kts | 323° |
| 2026-05-06 14:49 | -22.89106 | 150.58273 | 36051 ft | 396 kts | 323° |
| 2026-05-06 14:49 | -22.84344 | 150.55265 | 36050 ft | 396 kts | 323° |
| 2026-05-06 14:50 | -22.79613 | 150.52278 | 36049 ft | 396 kts | 323° |
| 2026-05-06 14:50 | -22.74852 | 150.49272 | 36043 ft | 396 kts | 323° |
| 2026-05-06 14:51 | -22.70088 | 150.46268 | 36049 ft | 397 kts | 323° |
| 2026-05-06 14:51 | -22.65318 | 150.43269 | 36021 ft | 395 kts | 323° |
| 2026-05-06 14:52 | -22.60559 | 150.40267 | 36045 ft | 396 kts | 323° |
| 2026-05-06 14:52 | -22.55821 | 150.37282 | 36045 ft | 397 kts | 323° |
| 2026-05-06 14:53 | -22.51047 | 150.34279 | 36041 ft | 397 kts | 323° |
| 2026-05-06 14:53 | -22.46277 | 150.31281 | 36043 ft | 396 kts | 323° |
| 2026-05-06 14:54 | -22.41505 | 150.28283 | 36044 ft | 397 kts | 323° |
| 2026-05-06 14:54 | -22.36757 | 150.25308 | 36040 ft | 397 kts | 323° |
| 2026-05-06 14:55 | -22.31976 | 150.22317 | 36027 ft | 397 kts | 323° |
| 2026-05-06 14:55 | -22.27197 | 150.19321 | 36042 ft | 398 kts | 323° |
| 2026-05-06 14:56 | -22.22435 | 150.16285 | 36030 ft | 397 kts | 322° |
| 2026-05-06 14:56 | -22.17725 | 150.13178 | 36033 ft | 397 kts | 322° |
| 2026-05-06 14:57 | -22.13043 | 150.10090 | 36036 ft | 397 kts | 322° |
| 2026-05-06 14:57 | -22.08322 | 150.06999 | 36031 ft | 397 kts | 322° |
| 2026-05-06 14:58 | -22.03594 | 150.03915 | 36034 ft | 397 kts | 322° |
| 2026-05-06 14:58 | -21.98865 | 150.00835 | 36034 ft | 397 kts | 322° |
| 2026-05-06 14:59 | -21.94155 | 149.97769 | 36034 ft | 399 kts | 322° |
| 2026-05-06 14:59 | -21.89408 | 149.94679 | 36035 ft | 399 kts | 322° |
| 2026-05-06 15:00 | -21.84657 | 149.91592 | 36036 ft | 399 kts | 322° |
| 2026-05-06 15:00 | -21.79909 | 149.88508 | 36036 ft | 398 kts | 322° |
| 2026-05-06 15:01 | -21.75163 | 149.85427 | 36037 ft | 398 kts | 322° |
| 2026-05-06 15:01 | -21.70449 | 149.82370 | 36033 ft | 398 kts | 322° |
| 2026-05-06 15:02 | -21.65698 | 149.79291 | 36032 ft | 399 kts | 322° |
| 2026-05-06 15:02 | -21.60949 | 149.76216 | 36029 ft | 398 kts | 323° |
| 2026-05-06 15:03 | -21.56197 | 149.73142 | 36029 ft | 399 kts | 322° |
| 2026-05-06 15:03 | -21.51479 | 149.70089 | 36030 ft | 399 kts | 322° |
| 2026-05-06 15:04 | -21.46734 | 149.67023 | 36028 ft | 398 kts | 322° |
| 2026-05-06 15:04 | -21.41980 | 149.63969 | 36030 ft | 398 kts | 323° |
| 2026-05-06 15:05 | -21.37229 | 149.60905 | 36028 ft | 398 kts | 322° |
| 2026-05-06 15:05 | -21.32483 | 149.57835 | 36024 ft | 399 kts | 323° |
| 2026-05-06 15:06 | -21.27750 | 149.54784 | 36026 ft | 399 kts | 323° |
| 2026-05-06 15:06 | -21.22987 | 149.51719 | 36027 ft | 399 kts | 323° |
| 2026-05-06 15:07 | -21.18222 | 149.48655 | 36026 ft | 399 kts | 323° |
| 2026-05-06 15:07 | -21.13459 | 149.45593 | 36026 ft | 399 kts | 323° |
| 2026-05-06 15:08 | -21.08725 | 149.42553 | 36018 ft | 399 kts | 323° |
| 2026-05-06 15:08 | -21.03954 | 149.39492 | 36017 ft | 400 kts | 323° |
| 2026-05-06 15:09 | -20.99181 | 149.36430 | 36021 ft | 401 kts | 323° |
| 2026-05-06 15:09 | -20.94384 | 149.33356 | 36018 ft | 402 kts | 323° |
| 2026-05-06 15:10 | -20.89616 | 149.30305 | 36015 ft | 402 kts | 323° |
| 2026-05-06 15:10 | -20.84815 | 149.27231 | 36018 ft | 402 kts | 323° |
| 2026-05-06 15:11 | -20.80014 | 149.24163 | 36020 ft | 402 kts | 323° |
| 2026-05-06 15:11 | -20.75217 | 149.21101 | 36020 ft | 402 kts | 323° |
| 2026-05-06 15:12 | -20.70414 | 149.18036 | 36019 ft | 402 kts | 323° |
| 2026-05-06 15:12 | -20.65632 | 149.14985 | 36019 ft | 403 kts | 323° |
| 2026-05-06 15:13 | -20.60813 | 149.11912 | 36017 ft | 404 kts | 323° |
| 2026-05-06 15:13 | -20.55985 | 149.08839 | 36015 ft | 404 kts | 323° |
| 2026-05-06 15:14 | -20.51157 | 149.05766 | 36016 ft | 404 kts | 323° |
| 2026-05-06 15:14 | -20.46358 | 149.02716 | 36017 ft | 404 kts | 323° |
| 2026-05-06 15:15 | -20.41526 | 148.99648 | 36017 ft | 404 kts | 323° |
| 2026-05-06 15:15 | -20.36701 | 148.96579 | 36002 ft | 403 kts | 323° |
| 2026-05-06 15:16 | -20.32183 | 148.93090 | 36020 ft | 401 kts | 317° |
| 2026-05-06 15:16 | -20.27801 | 148.89414 | 36020 ft | 401 kts | 317° |
| 2026-05-06 15:17 | -20.23472 | 148.85732 | 36022 ft | 401 kts | 317° |
| 2026-05-06 15:17 | -20.19110 | 148.82030 | 36017 ft | 401 kts | 317° |
| 2026-05-06 15:18 | -20.14735 | 148.78335 | 36013 ft | 401 kts | 317° |
| 2026-05-06 15:18 | -20.10363 | 148.74645 | 36012 ft | 401 kts | 317° |
| 2026-05-06 15:19 | -20.05986 | 148.70954 | 36011 ft | 402 kts | 317° |
| 2026-05-06 15:19 | -20.01635 | 148.67287 | 35996 ft | 402 kts | 317° |
| 2026-05-06 15:20 | -19.97242 | 148.63586 | 36008 ft | 404 kts | 317° |
| 2026-05-06 15:20 | -19.92843 | 148.59881 | 36007 ft | 404 kts | 317° |
| 2026-05-06 15:21 | -19.88435 | 148.56176 | 36005 ft | 404 kts | 317° |
| 2026-05-06 15:21 | -19.84059 | 148.52500 | 36005 ft | 404 kts | 317° |
| 2026-05-06 15:22 | -19.79647 | 148.48796 | 36005 ft | 404 kts | 317° |
| 2026-05-06 15:22 | -19.75242 | 148.45099 | 36005 ft | 404 kts | 317° |
| 2026-05-06 15:23 | -19.70830 | 148.41400 | 36003 ft | 404 kts | 317° |
| 2026-05-06 15:23 | -19.66442 | 148.37725 | 35997 ft | 405 kts | 317° |
| 2026-05-06 15:24 | -19.62012 | 148.34014 | 36003 ft | 406 kts | 317° |
| 2026-05-06 15:24 | -19.57578 | 148.30300 | 35998 ft | 406 kts | 317° |
| 2026-05-06 15:25 | -19.53138 | 148.26588 | 36002 ft | 406 kts | 317° |
| 2026-05-06 15:25 | -19.48698 | 148.22881 | 36001 ft | 406 kts | 317° |
| 2026-05-06 15:26 | -19.44292 | 148.19202 | 36004 ft | 406 kts | 317° |
| 2026-05-06 15:26 | -19.39850 | 148.15496 | 36002 ft | 406 kts | 317° |
| 2026-05-06 15:27 | -19.35410 | 148.11793 | 35998 ft | 406 kts | 317° |
| 2026-05-06 15:27 | -19.30967 | 148.08089 | 35995 ft | 407 kts | 317° |
| 2026-05-06 15:28 | -19.26531 | 148.04398 | 35997 ft | 409 kts | 317° |
| 2026-05-06 15:28 | -19.22063 | 148.00679 | 35999 ft | 409 kts | 317° |
| 2026-05-06 15:29 | -19.17590 | 147.96961 | 35996 ft | 409 kts | 317° |
| 2026-05-06 15:29 | -19.13119 | 147.93246 | 35996 ft | 409 kts | 317° |
| 2026-05-06 15:30 | -19.08645 | 147.89532 | 35999 ft | 409 kts | 317° |
| 2026-05-06 15:30 | -19.04203 | 147.85847 | 35996 ft | 409 kts | 317° |
| 2026-05-06 15:31 | -18.99728 | 147.82138 | 35997 ft | 409 kts | 317° |
| 2026-05-06 15:31 | -18.95252 | 147.78429 | 35994 ft | 410 kts | 318° |
| 2026-05-06 15:32 | -18.88518 | 147.72853 | 36001 ft | 410 kts | 318° |
| 2026-05-06 15:32 | -18.84057 | 147.69163 | 36011 ft | 410 kts | 318° |
| 2026-05-06 15:33 | -18.79562 | 147.65450 | 35998 ft | 410 kts | 318° |
| 2026-05-06 15:33 | -18.75066 | 147.61735 | 35987 ft | 411 kts | 318° |
| 2026-05-06 15:34 | -18.70572 | 147.58026 | 35997 ft | 410 kts | 318° |
| 2026-05-06 15:34 | -18.66099 | 147.54340 | 35989 ft | 411 kts | 318° |
| 2026-05-06 15:35 | -18.61589 | 147.50626 | 35993 ft | 412 kts | 318° |
| 2026-05-06 15:35 | -18.57077 | 147.46909 | 35987 ft | 412 kts | 318° |
| 2026-05-06 15:36 | -18.52562 | 147.43193 | 35992 ft | 412 kts | 318° |
| 2026-05-06 15:36 | -18.48043 | 147.39474 | 35996 ft | 412 kts | 318° |
| 2026-05-06 15:37 | -18.43553 | 147.35784 | 35986 ft | 412 kts | 318° |
| 2026-05-06 15:37 | -18.39034 | 147.32074 | 35983 ft | 412 kts | 318° |
| 2026-05-06 15:38 | -18.34512 | 147.28363 | 35992 ft | 412 kts | 318° |
| 2026-05-06 15:38 | -18.29990 | 147.24655 | 35989 ft | 412 kts | 318° |
| 2026-05-06 15:39 | -18.25465 | 147.20945 | 35993 ft | 412 kts | 318° |
| 2026-05-06 15:39 | -18.20968 | 147.17259 | 35986 ft | 412 kts | 318° |
| 2026-05-06 15:40 | -18.16441 | 147.13553 | 35983 ft | 412 kts | 318° |
| 2026-05-06 15:40 | -18.11912 | 147.09851 | 35993 ft | 412 kts | 318° |
| 2026-05-06 15:41 | -18.07385 | 147.06153 | 35981 ft | 412 kts | 318° |
| 2026-05-06 15:41 | -18.02892 | 147.02481 | 35988 ft | 412 kts | 318° |
| 2026-05-06 15:42 | -17.98363 | 146.98784 | 35985 ft | 412 kts | 318° |
| 2026-05-06 15:42 | -17.93833 | 146.95089 | 35986 ft | 413 kts | 318° |
| 2026-05-06 15:43 | -17.89289 | 146.91384 | 35986 ft | 414 kts | 318° |
| 2026-05-06 15:43 | -17.84741 | 146.87679 | 35995 ft | 414 kts | 318° |
| 2026-05-06 15:44 | -17.80218 | 146.83993 | 36022 ft | 414 kts | 318° |
| 2026-05-06 15:44 | -17.77939 | 146.82138 | 36123 ft | 416 kts | 318° |
| 2026-05-06 15:44 | -17.75648 | 146.80279 | 36270 ft | 416 kts | 318° |
| 2026-05-06 15:45 | -17.73358 | 146.78420 | 36435 ft | 416 kts | 318° |
| 2026-05-06 15:45 | -17.71071 | 146.76565 | 36594 ft | 416 kts | 318° |
| 2026-05-06 15:45 | -17.68783 | 146.74708 | 36765 ft | 415 kts | 318° |
| 2026-05-06 15:45 | -17.66501 | 146.72856 | 36932 ft | 415 kts | 318° |
| 2026-05-06 15:46 | -17.64222 | 146.71007 | 37081 ft | 414 kts | 318° |
| 2026-05-06 15:46 | -17.61974 | 146.69183 | 37230 ft | 414 kts | 318° |
| 2026-05-06 15:46 | -17.59699 | 146.67337 | 37339 ft | 414 kts | 318° |
| 2026-05-06 15:46 | -17.57418 | 146.65488 | 37449 ft | 415 kts | 318° |
| 2026-05-06 15:47 | -17.55134 | 146.63638 | 37599 ft | 414 kts | 318° |
| 2026-05-06 15:47 | -17.52857 | 146.61793 | 37760 ft | 414 kts | 318° |
| 2026-05-06 15:47 | -17.50580 | 146.59951 | 37910 ft | 413 kts | 318° |
| 2026-05-06 15:47 | -17.48304 | 146.58111 | 37982 ft | 414 kts | 318° |
| 2026-05-06 15:48 | -17.43778 | 146.54447 | 37986 ft | 413 kts | 318° |
| 2026-05-06 15:48 | -17.39239 | 146.50780 | 37985 ft | 412 kts | 318° |
| 2026-05-06 15:49 | -17.34699 | 146.47110 | 37985 ft | 412 kts | 318° |
| 2026-05-06 15:49 | -17.30158 | 146.43442 | 37985 ft | 412 kts | 318° |
| 2026-05-06 15:50 | -17.25618 | 146.39777 | 37982 ft | 413 kts | 318° |
| 2026-05-06 15:50 | -17.21099 | 146.36131 | 37983 ft | 414 kts | 318° |
| 2026-05-06 15:51 | -17.16537 | 146.32460 | 37982 ft | 414 kts | 318° |
| 2026-05-06 15:51 | -17.11975 | 146.28784 | 37982 ft | 414 kts | 318° |
| 2026-05-06 15:52 | -17.07419 | 146.25114 | 37979 ft | 414 kts | 318° |
| 2026-05-06 15:52 | -17.02886 | 146.21467 | 37979 ft | 414 kts | 318° |
| 2026-05-06 15:53 | -16.98325 | 146.17802 | 37980 ft | 414 kts | 318° |
| 2026-05-06 15:53 | -16.93763 | 146.14137 | 37980 ft | 414 kts | 318° |
| 2026-05-06 15:54 | -16.89189 | 146.10463 | 37983 ft | 416 kts | 318° |
| 2026-05-06 15:54 | -16.84629 | 146.06806 | 37980 ft | 416 kts | 318° |
| 2026-05-06 15:55 | -16.80031 | 146.03120 | 37983 ft | 416 kts | 318° |
| 2026-05-06 15:55 | -16.75441 | 145.99441 | 37983 ft | 416 kts | 318° |
| 2026-05-06 15:56 | -16.70876 | 145.95741 | 37978 ft | 414 kts | 315° |
| 2026-05-06 15:56 | -16.66847 | 145.91540 | 37978 ft | 412 kts | 310° |
| 2026-05-06 15:57 | -16.62980 | 145.87144 | 37980 ft | 411 kts | 309° |
| 2026-05-06 15:57 | -16.59141 | 145.82716 | 37979 ft | 412 kts | 309° |
| 2026-05-06 15:58 | -16.55291 | 145.78287 | 37983 ft | 413 kts | 309° |
| 2026-05-06 15:58 | -16.51425 | 145.73856 | 37980 ft | 413 kts | 309° |
| 2026-05-06 15:59 | -16.47578 | 145.69455 | 37980 ft | 413 kts | 309° |
| 2026-05-06 15:59 | -16.43703 | 145.65028 | 37983 ft | 414 kts | 309° |
| 2026-05-06 16:00 | -16.39824 | 145.60600 | 37988 ft | 414 kts | 309° |
| 2026-05-06 16:00 | -16.35950 | 145.56173 | 37990 ft | 413 kts | 309° |
| 2026-05-06 16:01 | -16.32076 | 145.51749 | 37988 ft | 413 kts | 309° |
| 2026-05-06 16:01 | -16.28228 | 145.47359 | 37985 ft | 413 kts | 309° |
| 2026-05-06 16:02 | -16.24349 | 145.42940 | 37991 ft | 413 kts | 309° |
| 2026-05-06 16:02 | -16.20471 | 145.38524 | 37983 ft | 413 kts | 309° |
| 2026-05-06 16:03 | -16.16580 | 145.34093 | 37998 ft | 416 kts | 309° |
| 2026-05-06 16:03 | -16.12701 | 145.29681 | 37994 ft | 416 kts | 309° |
| 2026-05-06 16:04 | -16.08798 | 145.25242 | 37999 ft | 416 kts | 309° |
| 2026-05-06 16:04 | -16.04897 | 145.20808 | 37995 ft | 416 kts | 309° |
| 2026-05-06 16:05 | -16.00991 | 145.16376 | 37996 ft | 415 kts | 309° |
| 2026-05-06 16:05 | -15.97087 | 145.11949 | 37994 ft | 415 kts | 310° |
| 2026-05-06 16:06 | -15.93212 | 145.07560 | 37994 ft | 415 kts | 310° |
| 2026-05-06 16:06 | -15.89308 | 145.03133 | 37994 ft | 415 kts | 309° |
| 2026-05-06 16:07 | -15.85408 | 144.98711 | 37993 ft | 415 kts | 310° |
| 2026-05-06 16:07 | -15.81495 | 144.94282 | 37988 ft | 417 kts | 310° |
| 2026-05-06 16:08 | -15.77593 | 144.89869 | 37986 ft | 418 kts | 310° |
| 2026-05-06 16:08 | -15.73664 | 144.85428 | 37982 ft | 418 kts | 310° |
| 2026-05-06 16:09 | -15.69732 | 144.80985 | 37979 ft | 418 kts | 310° |
| 2026-05-06 16:09 | -15.65801 | 144.76546 | 37981 ft | 418 kts | 310° |
| 2026-05-06 16:10 | -15.61865 | 144.72105 | 37978 ft | 418 kts | 310° |
| 2026-05-06 16:10 | -15.57953 | 144.67696 | 37975 ft | 418 kts | 310° |
| 2026-05-06 16:11 | -15.54014 | 144.63258 | 37973 ft | 418 kts | 310° |
| 2026-05-06 16:11 | -15.50076 | 144.58823 | 37972 ft | 418 kts | 310° |
| 2026-05-06 16:12 | -15.46136 | 144.54386 | 37962 ft | 419 kts | 310° |
| 2026-05-06 16:12 | -15.42210 | 144.49971 | 37961 ft | 419 kts | 310° |
| 2026-05-06 16:13 | -15.38252 | 144.45522 | 37975 ft | 420 kts | 310° |
| 2026-05-06 16:13 | -15.34293 | 144.41072 | 37961 ft | 420 kts | 310° |
| 2026-05-06 16:14 | -15.30330 | 144.36622 | 37968 ft | 420 kts | 310° |
| 2026-05-06 16:14 | -15.26396 | 144.32206 | 37958 ft | 420 kts | 310° |
| 2026-05-06 16:15 | -15.22434 | 144.27760 | 37972 ft | 420 kts | 310° |
| 2026-05-06 16:15 | -15.18475 | 144.23322 | 37972 ft | 419 kts | 310° |
| 2026-05-06 16:16 | -15.14514 | 144.18882 | 37960 ft | 420 kts | 310° |
| 2026-05-06 16:16 | -15.10542 | 144.14436 | 37967 ft | 420 kts | 310° |
| 2026-05-06 16:17 | -15.06595 | 144.10020 | 37966 ft | 421 kts | 310° |
| 2026-05-06 16:17 | -15.02611 | 144.05568 | 37963 ft | 422 kts | 310° |
| 2026-05-06 16:18 | -14.98587 | 144.01148 | 37963 ft | 423 kts | 314° |
| 2026-05-06 16:18 | -14.94248 | 143.97037 | 37962 ft | 423 kts | 315° |
| 2026-05-06 16:19 | -14.89869 | 143.93024 | 37965 ft | 424 kts | 315° |
| 2026-05-06 16:19 | -14.85442 | 143.88995 | 37968 ft | 424 kts | 315° |
| 2026-05-06 16:20 | -14.81025 | 143.84970 | 37959 ft | 423 kts | 315° |
| 2026-05-06 16:20 | -14.76608 | 143.80937 | 37967 ft | 423 kts | 315° |
| 2026-05-06 16:21 | -14.72197 | 143.76908 | 37973 ft | 424 kts | 315° |
| 2026-05-06 16:21 | -14.67809 | 143.72904 | 37963 ft | 424 kts | 315° |
| 2026-05-06 16:22 | -14.63389 | 143.68873 | 37965 ft | 424 kts | 315° |
| 2026-05-06 16:22 | -14.58969 | 143.64844 | 37962 ft | 424 kts | 315° |
| 2026-05-06 16:23 | -14.54548 | 143.60817 | 37965 ft | 424 kts | 315° |
| 2026-05-06 16:23 | -14.50121 | 143.56787 | 37966 ft | 424 kts | 315° |
| 2026-05-06 16:24 | -14.45729 | 143.52791 | 37968 ft | 424 kts | 315° |
| 2026-05-06 16:24 | -14.41309 | 143.48769 | 37964 ft | 424 kts | 316° |
| 2026-05-06 16:25 | -14.36876 | 143.44741 | 37971 ft | 425 kts | 316° |
| 2026-05-06 16:25 | -14.32436 | 143.40708 | 37973 ft | 426 kts | 316° |
| 2026-05-06 16:26 | -14.27990 | 143.36668 | 37971 ft | 426 kts | 316° |
| 2026-05-06 16:26 | -14.23577 | 143.32664 | 37971 ft | 425 kts | 316° |
| 2026-05-06 16:27 | -14.19133 | 143.28635 | 37969 ft | 426 kts | 316° |
| 2026-05-06 16:27 | -14.14689 | 143.24608 | 37964 ft | 425 kts | 316° |
| 2026-05-06 16:28 | -14.10241 | 143.20577 | 37965 ft | 426 kts | 316° |
| 2026-05-06 16:28 | -14.05820 | 143.16576 | 37964 ft | 427 kts | 316° |
| 2026-05-06 16:29 | -14.01354 | 143.12535 | 37969 ft | 428 kts | 316° |
| 2026-05-06 16:29 | -13.96882 | 143.08487 | 37962 ft | 428 kts | 316° |
| 2026-05-06 16:30 | -13.93168 | 143.05130 | 37963 ft | 428 kts | 316° |
| 2026-05-06 16:30 | -13.87973 | 143.00438 | 37965 ft | 427 kts | 316° |
| 2026-05-06 16:31 | -13.83506 | 142.96402 | 37966 ft | 427 kts | 316° |
| 2026-05-06 16:31 | -13.79039 | 142.92367 | 37959 ft | 427 kts | 316° |
| 2026-05-06 16:32 | -13.74565 | 142.88334 | 37957 ft | 428 kts | 316° |
| 2026-05-06 16:32 | -13.70111 | 142.84321 | 37955 ft | 429 kts | 316° |
| 2026-05-06 16:33 | -13.65622 | 142.80273 | 37957 ft | 429 kts | 316° |
| 2026-05-06 16:34 | -13.58880 | 142.74204 | 37954 ft | 430 kts | 316° |
| 2026-05-06 16:34 | -13.54385 | 142.70156 | 37957 ft | 429 kts | 316° |
| 2026-05-06 16:35 | -13.49918 | 142.66137 | 37955 ft | 429 kts | 316° |
| 2026-05-06 16:35 | -13.45429 | 142.62101 | 37951 ft | 429 kts | 316° |
| 2026-05-06 16:36 | -13.40935 | 142.58065 | 37953 ft | 429 kts | 316° |
| 2026-05-06 16:36 | -13.36432 | 142.54018 | 37951 ft | 430 kts | 316° |
| 2026-05-06 16:37 | -13.31941 | 142.49988 | 37949 ft | 432 kts | 316° |
| 2026-05-06 16:37 | -13.27422 | 142.45933 | 37949 ft | 432 kts | 316° |
| 2026-05-06 16:38 | -13.22895 | 142.41869 | 37952 ft | 432 kts | 316° |
| 2026-05-06 16:38 | -13.18373 | 142.37816 | 37946 ft | 432 kts | 316° |
| 2026-05-06 16:39 | -13.13848 | 142.33764 | 37949 ft | 432 kts | 316° |
| 2026-05-06 16:39 | -13.09353 | 142.29744 | 37946 ft | 432 kts | 316° |
| 2026-05-06 16:40 | -13.04822 | 142.25688 | 37940 ft | 432 kts | 316° |
| 2026-05-06 16:40 | -13.00292 | 142.21635 | 37947 ft | 433 kts | 316° |
| 2026-05-06 16:41 | -12.95747 | 142.17575 | 37948 ft | 433 kts | 316° |
| 2026-05-06 16:41 | -12.91235 | 142.13540 | 37946 ft | 433 kts | 316° |
| 2026-05-06 16:42 | -12.86709 | 142.09493 | 37947 ft | 433 kts | 316° |
| 2026-05-06 16:42 | -12.82154 | 142.05429 | 37946 ft | 433 kts | 316° |
| 2026-05-06 16:43 | -12.77606 | 142.01374 | 37943 ft | 433 kts | 316° |
| 2026-05-06 16:43 | -12.73087 | 141.97347 | 37941 ft | 433 kts | 316° |
| 2026-05-06 16:44 | -12.68540 | 141.93293 | 37944 ft | 434 kts | 316° |
| 2026-05-06 16:44 | -12.64086 | 141.89134 | 37938 ft | 433 kts | 313° |
| 2026-05-06 16:45 | -12.59895 | 141.84712 | 37941 ft | 433 kts | 311° |
| 2026-05-06 16:45 | -12.55714 | 141.80271 | 37942 ft | 433 kts | 312° |
| 2026-05-06 16:46 | -12.51523 | 141.75904 | 37939 ft | 433 kts | 313° |
| 2026-05-06 16:46 | -12.47273 | 141.71528 | 37938 ft | 433 kts | 313° |
| 2026-05-06 16:47 | -12.43022 | 141.67157 | 37935 ft | 433 kts | 313° |
| 2026-05-06 16:47 | -12.38773 | 141.62789 | 37937 ft | 433 kts | 313° |
| 2026-05-06 16:48 | -12.34513 | 141.58411 | 37937 ft | 434 kts | 313° |
| 2026-05-06 16:48 | -12.30266 | 141.54057 | 37936 ft | 436 kts | 313° |
| 2026-05-06 16:49 | -12.26004 | 141.49670 | 37938 ft | 434 kts | 312° |
| 2026-05-06 16:49 | -12.21753 | 141.45286 | 37935 ft | 435 kts | 313° |
| 2026-05-06 16:50 | -12.17495 | 141.40918 | 37938 ft | 434 kts | 313° |
| 2026-05-06 16:50 | -12.13232 | 141.36547 | 37937 ft | 435 kts | 313° |
| 2026-05-06 16:51 | -12.08976 | 141.32173 | 37929 ft | 434 kts | 313° |
| 2026-05-06 16:51 | -12.04723 | 141.27822 | 37933 ft | 436 kts | 313° |
| 2026-05-06 16:52 | -12.00438 | 141.23448 | 37931 ft | 436 kts | 314° |
| 2026-05-06 16:52 | -11.96146 | 141.19061 | 37931 ft | 436 kts | 314° |
| 2026-05-06 16:53 | -11.91860 | 141.14675 | 37930 ft | 436 kts | 314° |
| 2026-05-06 16:53 | -11.87568 | 141.10285 | 37930 ft | 437 kts | 313° |
| 2026-05-06 16:54 | -11.83297 | 141.05915 | 37932 ft | 438 kts | 313° |
| 2026-05-06 16:54 | -11.78978 | 141.01523 | 37928 ft | 437 kts | 314° |
| 2026-05-06 16:55 | -11.74675 | 140.97133 | 37927 ft | 438 kts | 313° |
| 2026-05-06 16:55 | -11.70379 | 140.92724 | 37925 ft | 438 kts | 313° |
| 2026-05-06 16:56 | -11.66073 | 140.88322 | 37922 ft | 438 kts | 314° |
| 2026-05-06 16:56 | -11.61799 | 140.83966 | 37926 ft | 436 kts | 314° |
| 2026-05-06 16:57 | -11.57494 | 140.79589 | 37924 ft | 438 kts | 314° |
| 2026-05-06 16:57 | -11.53183 | 140.75189 | 37924 ft | 439 kts | 314° |
| 2026-05-06 16:58 | -11.49596 | 140.71531 | 37925 ft | 439 kts | 314° |
| 2026-05-06 16:58 | -11.44579 | 140.66424 | 37924 ft | 438 kts | 314° |
| 2026-05-06 16:59 | -11.40263 | 140.62029 | 37924 ft | 439 kts | 314° |
| 2026-05-06 16:59 | -11.36665 | 140.58367 | 37924 ft | 440 kts | 314° |
| 2026-05-06 17:00 | -11.32331 | 140.53959 | 37924 ft | 440 kts | 314° |
| 2026-05-06 17:00 | -11.27999 | 140.49559 | 37927 ft | 440 kts | 314° |
| 2026-05-06 17:01 | -11.23666 | 140.45157 | 37930 ft | 440 kts | 314° |
| 2026-05-06 17:01 | -11.19331 | 140.40755 | 37926 ft | 440 kts | 314° |
| 2026-05-06 17:02 | -11.15026 | 140.36387 | 37925 ft | 439 kts | 314° |
| 2026-05-06 17:02 | -11.10690 | 140.32005 | 37926 ft | 439 kts | 314° |
| 2026-05-06 17:03 | -11.06357 | 140.27600 | 37921 ft | 440 kts | 314° |
| 2026-05-06 17:03 | -11.02026 | 140.23204 | 37923 ft | 439 kts | 314° |
| 2026-05-06 17:04 | -10.97725 | 140.18847 | 37925 ft | 440 kts | 314° |
| 2026-05-06 17:04 | -10.93386 | 140.14459 | 37921 ft | 440 kts | 314° |
| 2026-05-06 17:05 | -10.89036 | 140.10061 | 37919 ft | 441 kts | 314° |
| 2026-05-06 17:05 | -10.84696 | 140.05684 | 37922 ft | 439 kts | 314° |
| 2026-05-06 17:06 | -10.80357 | 140.01298 | 37923 ft | 440 kts | 314° |
| 2026-05-06 17:06 | -10.76042 | 139.96938 | 37921 ft | 440 kts | 314° |
| 2026-05-06 17:07 | -10.71700 | 139.92558 | 37924 ft | 439 kts | 314° |
| 2026-05-06 17:07 | -10.67361 | 139.88183 | 37915 ft | 439 kts | 314° |
| 2026-05-06 17:08 | -10.63010 | 139.83796 | 37919 ft | 442 kts | 314° |
| 2026-05-06 17:08 | -10.58642 | 139.79394 | 37920 ft | 442 kts | 314° |
| 2026-05-06 17:09 | -10.54301 | 139.75020 | 37919 ft | 442 kts | 314° |
| 2026-05-06 17:09 | -10.49934 | 139.70625 | 37920 ft | 441 kts | 314° |
| 2026-05-06 17:10 | -10.45576 | 139.66235 | 37916 ft | 442 kts | 314° |
| 2026-05-06 17:10 | -10.41211 | 139.61844 | 37916 ft | 441 kts | 314° |
| 2026-05-06 17:11 | -10.36877 | 139.57489 | 37916 ft | 441 kts | 314° |
| 2026-05-06 17:11 | -10.32513 | 139.53101 | 37916 ft | 442 kts | 314° |
| 2026-05-06 17:12 | -10.28137 | 139.48702 | 37915 ft | 444 kts | 314° |
| 2026-05-06 17:12 | -10.23750 | 139.44291 | 37916 ft | 444 kts | 314° |
| 2026-05-06 17:13 | -10.19361 | 139.39886 | 37914 ft | 443 kts | 314° |
| 2026-05-06 17:13 | -10.15006 | 139.35517 | 37914 ft | 443 kts | 314° |
| 2026-05-06 17:14 | -10.10619 | 139.31115 | 37911 ft | 443 kts | 314° |
| 2026-05-06 17:14 | -10.06234 | 139.26721 | 37910 ft | 443 kts | 314° |
| 2026-05-06 17:15 | -10.01849 | 139.22326 | 37913 ft | 443 kts | 314° |
| 2026-05-06 17:15 | -9.97475 | 139.17951 | 37913 ft | 446 kts | 315° |
| 2026-05-06 17:16 | -9.93057 | 139.13525 | 37907 ft | 447 kts | 315° |
| 2026-05-06 17:16 | -9.88634 | 139.09096 | 37915 ft | 447 kts | 314° |
| 2026-05-06 17:17 | -9.84211 | 139.04666 | 37909 ft | 446 kts | 314° |
| 2026-05-06 17:17 | -9.79796 | 139.00250 | 37909 ft | 446 kts | 315° |
| 2026-05-06 17:18 | -9.75414 | 138.95869 | 37905 ft | 446 kts | 315° |
| 2026-05-06 17:18 | -9.70995 | 138.91452 | 37905 ft | 447 kts | 315° |
| 2026-05-06 17:19 | -9.66585 | 138.87045 | 37920 ft | 446 kts | 315° |
| 2026-05-06 17:19 | -9.62154 | 138.82615 | 37902 ft | 449 kts | 315° |
| 2026-05-06 17:20 | -9.57700 | 138.78170 | 37902 ft | 449 kts | 315° |
| 2026-05-06 17:20 | -9.53280 | 138.73754 | 37898 ft | 449 kts | 314° |
| 2026-05-06 17:21 | -9.48826 | 138.69307 | 37897 ft | 450 kts | 315° |
| 2026-05-06 17:21 | -9.44370 | 138.64876 | 37918 ft | 449 kts | 314° |
| 2026-05-06 17:22 | -9.39913 | 138.60432 | 37902 ft | 449 kts | 315° |
| 2026-05-06 17:22 | -9.35489 | 138.56025 | 37897 ft | 449 kts | 315° |
| 2026-05-06 17:23 | -9.31017 | 138.51569 | 37897 ft | 452 kts | 315° |
| 2026-05-06 17:23 | -9.26528 | 138.47094 | 37895 ft | 453 kts | 315° |
| 2026-05-06 17:24 | -9.22065 | 138.42657 | 37903 ft | 452 kts | 315° |
| 2026-05-06 17:24 | -9.17581 | 138.38213 | 37899 ft | 451 kts | 315° |
| 2026-05-06 17:25 | -9.13106 | 138.33757 | 37899 ft | 451 kts | 314° |
| 2026-05-06 17:25 | -9.08633 | 138.29300 | 37901 ft | 451 kts | 315° |
| 2026-05-06 17:26 | -9.04159 | 138.24853 | 37889 ft | 452 kts | 315° |
| 2026-05-06 17:26 | -8.99703 | 138.20424 | 37886 ft | 452 kts | 315° |
| 2026-05-06 17:27 | -8.95209 | 138.15960 | 37887 ft | 453 kts | 315° |
| 2026-05-06 17:27 | -8.90719 | 138.11504 | 37905 ft | 452 kts | 315° |
| 2026-05-06 17:28 | -8.86187 | 138.07083 | 37889 ft | 453 kts | 319° |
| 2026-05-06 17:28 | -8.81306 | 138.03130 | 37905 ft | 452 kts | 321° |
| 2026-05-06 17:29 | -8.76322 | 137.99257 | 37887 ft | 452 kts | 321° |
| 2026-05-06 17:29 | -8.71312 | 137.95398 | 37901 ft | 453 kts | 322° |
| 2026-05-06 17:30 | -8.66299 | 137.91533 | 37896 ft | 453 kts | 322° |
| 2026-05-06 17:30 | -8.61292 | 137.87661 | 37896 ft | 453 kts | 321° |
| 2026-05-06 17:31 | -8.56317 | 137.83814 | 37883 ft | 453 kts | 322° |
| 2026-05-06 17:31 | -8.51309 | 137.79945 | 37876 ft | 454 kts | 322° |
| 2026-05-06 17:32 | -8.46295 | 137.76071 | 37896 ft | 454 kts | 322° |
| 2026-05-06 17:32 | -8.41269 | 137.72189 | 37879 ft | 454 kts | 322° |
| 2026-05-06 17:33 | -8.36237 | 137.68300 | 37895 ft | 456 kts | 322° |
| 2026-05-06 17:33 | -8.31225 | 137.64434 | 37893 ft | 457 kts | 322° |
| 2026-05-06 17:34 | -8.26171 | 137.60534 | 37891 ft | 457 kts | 322° |
| 2026-05-06 17:34 | -8.21126 | 137.56638 | 37889 ft | 456 kts | 322° |
| 2026-05-06 17:35 | -8.16098 | 137.52761 | 37886 ft | 454 kts | 322° |
| 2026-05-06 17:35 | -8.11080 | 137.48894 | 37886 ft | 454 kts | 322° |
| 2026-05-06 17:36 | -8.03580 | 137.43114 | 37892 ft | 454 kts | 322° |
| 2026-05-06 17:36 | -7.98561 | 137.39248 | 37893 ft | 454 kts | 322° |
| 2026-05-06 17:37 | -7.93536 | 137.35380 | 37891 ft | 453 kts | 322° |
| 2026-05-06 17:37 | -7.88530 | 137.31527 | 37874 ft | 453 kts | 322° |
| 2026-05-06 17:38 | -7.83521 | 137.27670 | 37871 ft | 453 kts | 322° |
| 2026-05-06 17:38 | -7.78557 | 137.23849 | 37886 ft | 453 kts | 322° |
| 2026-05-06 17:39 | -7.73529 | 137.19981 | 37885 ft | 455 kts | 322° |
| 2026-05-06 17:39 | -7.68513 | 137.16126 | 37882 ft | 453 kts | 322° |
| 2026-05-06 17:40 | -7.63482 | 137.12260 | 37883 ft | 455 kts | 322° |
| 2026-05-06 17:40 | -7.58488 | 137.08423 | 37886 ft | 453 kts | 322° |
| 2026-05-06 17:41 | -7.53464 | 137.04563 | 37878 ft | 455 kts | 322° |
| 2026-05-06 17:41 | -7.48436 | 137.00703 | 37883 ft | 453 kts | 322° |
| 2026-05-06 17:42 | -7.43410 | 136.96843 | 37872 ft | 456 kts | 322° |
| 2026-05-06 17:42 | -7.38400 | 136.92997 | 37878 ft | 455 kts | 322° |
| 2026-05-06 17:43 | -7.33373 | 136.89142 | 37874 ft | 455 kts | 322° |
| 2026-05-06 17:43 | -7.28324 | 136.85270 | 37879 ft | 456 kts | 322° |
| 2026-05-06 17:44 | -7.23291 | 136.81408 | 37857 ft | 454 kts | 322° |
| 2026-05-06 17:44 | -7.18284 | 136.77570 | 37872 ft | 456 kts | 322° |
| 2026-05-06 17:45 | -7.13238 | 136.73702 | 37877 ft | 456 kts | 322° |
| 2026-05-06 17:45 | -7.08178 | 136.69829 | 37872 ft | 458 kts | 322° |
| 2026-05-06 17:46 | -7.03110 | 136.65946 | 37854 ft | 456 kts | 322° |
| 2026-05-06 17:46 | -6.98097 | 136.62107 | 37875 ft | 458 kts | 322° |
| 2026-05-06 17:47 | -6.93023 | 136.58221 | 37869 ft | 457 kts | 322° |
| 2026-05-06 17:47 | -6.87967 | 136.54350 | 37874 ft | 457 kts | 322° |
| 2026-05-06 17:48 | -6.82895 | 136.50470 | 37875 ft | 458 kts | 322° |
| 2026-05-06 17:48 | -6.77866 | 136.46624 | 37877 ft | 456 kts | 322° |
| 2026-05-06 17:49 | -6.72802 | 136.42753 | 37868 ft | 458 kts | 322° |
| 2026-05-06 17:49 | -6.67735 | 136.38878 | 37869 ft | 456 kts | 322° |
| 2026-05-06 17:50 | -6.62669 | 136.35005 | 37876 ft | 459 kts | 322° |
| 2026-05-06 17:50 | -6.57596 | 136.31130 | 37870 ft | 457 kts | 323° |
| 2026-05-06 17:51 | -6.52553 | 136.27280 | 37874 ft | 459 kts | 322° |
| 2026-05-06 17:51 | -6.47450 | 136.23385 | 37873 ft | 460 kts | 322° |
| 2026-05-06 17:52 | -6.42364 | 136.19499 | 37872 ft | 459 kts | 322° |
| 2026-05-06 17:52 | -6.37273 | 136.15608 | 37870 ft | 460 kts | 322° |
| 2026-05-06 17:53 | -6.32222 | 136.11757 | 37870 ft | 457 kts | 322° |
| 2026-05-06 17:53 | -6.27153 | 136.07891 | 37868 ft | 460 kts | 322° |
| 2026-05-06 17:54 | -6.22040 | 136.03991 | 37860 ft | 461 kts | 322° |
| 2026-05-06 17:54 | -6.16931 | 136.00093 | 37866 ft | 461 kts | 322° |
| 2026-05-06 17:55 | -6.11814 | 135.96194 | 37867 ft | 462 kts | 322° |
| 2026-05-06 17:55 | -6.06746 | 135.92330 | 37868 ft | 459 kts | 322° |
| 2026-05-06 17:56 | -6.01647 | 135.88446 | 37867 ft | 460 kts | 322° |
| 2026-05-06 17:56 | -5.96545 | 135.84563 | 37867 ft | 460 kts | 322° |
| 2026-05-06 17:57 | -5.91434 | 135.80670 | 37870 ft | 463 kts | 322° |
| 2026-05-06 17:57 | -5.86301 | 135.76760 | 37864 ft | 463 kts | 323° |
| 2026-05-06 17:58 | -5.81220 | 135.72889 | 37866 ft | 461 kts | 323° |
| 2026-05-06 17:58 | -5.76100 | 135.68991 | 37862 ft | 462 kts | 323° |
| 2026-05-06 17:59 | -5.70990 | 135.65102 | 37864 ft | 461 kts | 323° |
| 2026-05-06 17:59 | -5.65866 | 135.61208 | 37864 ft | 463 kts | 323° |
| 2026-05-06 18:00 | -5.60777 | 135.57339 | 37866 ft | 461 kts | 322° |
| 2026-05-06 18:00 | -5.55676 | 135.53461 | 37864 ft | 459 kts | 322° |
| 2026-05-06 18:01 | -5.50584 | 135.49589 | 37862 ft | 459 kts | 322° |
| 2026-05-06 18:01 | -5.45497 | 135.45725 | 37862 ft | 459 kts | 322° |
| 2026-05-06 18:02 | -5.40438 | 135.41883 | 37856 ft | 461 kts | 323° |
| 2026-05-06 18:02 | -5.35313 | 135.37985 | 37860 ft | 463 kts | 323° |
| 2026-05-06 18:03 | -5.30199 | 135.34109 | 37858 ft | 460 kts | 323° |
| 2026-05-06 18:03 | -5.25086 | 135.30225 | 37857 ft | 461 kts | 323° |
| 2026-05-06 18:04 | -5.20013 | 135.26369 | 37859 ft | 460 kts | 323° |
| 2026-05-06 18:04 | -5.14900 | 135.22486 | 37855 ft | 462 kts | 323° |
| 2026-05-06 18:05 | -5.09784 | 135.18602 | 37853 ft | 461 kts | 323° |
| 2026-05-06 18:05 | -5.04672 | 135.14720 | 37855 ft | 461 kts | 323° |
| 2026-05-06 18:06 | -4.99584 | 135.10860 | 37856 ft | 461 kts | 323° |
| 2026-05-06 18:06 | -4.94467 | 135.06984 | 37856 ft | 461 kts | 323° |
| 2026-05-06 18:07 | -4.89354 | 135.03103 | 37855 ft | 461 kts | 323° |
| 2026-05-06 18:07 | -4.84238 | 134.99227 | 37834 ft | 460 kts | 323° |
| 2026-05-06 18:08 | -4.79113 | 134.95358 | 37850 ft | 462 kts | 323° |
| 2026-05-06 18:08 | -4.74009 | 134.91482 | 37854 ft | 461 kts | 323° |
| 2026-05-06 18:09 | -4.68897 | 134.87618 | 37853 ft | 461 kts | 323° |
| 2026-05-06 18:09 | -4.63776 | 134.83728 | 37854 ft | 464 kts | 323° |
| 2026-05-06 18:10 | -4.58634 | 134.79824 | 37849 ft | 462 kts | 321° |
| 2026-05-06 18:10 | -4.53508 | 134.75915 | 37854 ft | 466 kts | 322° |
| 2026-05-06 18:11 | -4.48327 | 134.72010 | 37854 ft | 466 kts | 322° |
| 2026-05-06 18:11 | -4.43157 | 134.68106 | 37853 ft | 465 kts | 322° |
| 2026-05-06 18:12 | -4.37991 | 134.64201 | 37853 ft | 465 kts | 322° |
| 2026-05-06 18:12 | -4.32819 | 134.60292 | 37858 ft | 465 kts | 322° |
| 2026-05-06 18:13 | -4.27693 | 134.56410 | 37852 ft | 465 kts | 322° |
| 2026-05-06 18:13 | -4.22521 | 134.52496 | 37854 ft | 466 kts | 322° |
| 2026-05-06 18:14 | -4.17357 | 134.48591 | 37854 ft | 465 kts | 322° |
| 2026-05-06 18:14 | -4.12193 | 134.44686 | 37857 ft | 465 kts | 322° |
| 2026-05-06 18:15 | -4.07058 | 134.40803 | 37860 ft | 466 kts | 322° |
| 2026-05-06 18:15 | -4.01881 | 134.36891 | 37867 ft | 467 kts | 322° |
| 2026-05-06 18:16 | -3.96689 | 134.32965 | 37863 ft | 467 kts | 322° |
| 2026-05-06 18:16 | -3.91503 | 134.29044 | 37868 ft | 467 kts | 322° |
| 2026-05-06 18:17 | -3.86317 | 134.25134 | 37872 ft | 466 kts | 322° |
| 2026-05-06 18:17 | -3.81169 | 134.21244 | 37872 ft | 468 kts | 322° |
| 2026-05-06 18:18 | -3.75954 | 134.17300 | 37873 ft | 470 kts | 322° |
| 2026-05-06 18:18 | -3.70726 | 134.13351 | 37881 ft | 471 kts | 322° |
| 2026-05-06 18:19 | -3.65509 | 134.09410 | 37880 ft | 467 kts | 322° |
| 2026-05-06 18:19 | -3.60390 | 134.05546 | 37880 ft | 462 kts | 322° |
| 2026-05-06 18:20 | -3.55264 | 134.01675 | 37876 ft | 462 kts | 322° |
| 2026-05-06 18:20 | -3.50106 | 133.97791 | 37877 ft | 465 kts | 322° |
| 2026-05-06 18:21 | -3.44942 | 133.93895 | 37876 ft | 464 kts | 322° |
| 2026-05-06 18:21 | -3.39789 | 133.90001 | 37871 ft | 464 kts | 322° |
| 2026-05-06 18:22 | -3.34667 | 133.86133 | 37872 ft | 464 kts | 322° |
| 2026-05-06 18:22 | -3.29511 | 133.82243 | 37864 ft | 464 kts | 323° |
| 2026-05-06 18:23 | -3.24363 | 133.78363 | 37866 ft | 463 kts | 322° |
| 2026-05-06 18:23 | -3.19220 | 133.74481 | 37860 ft | 463 kts | 322° |
| 2026-05-06 18:24 | -3.14117 | 133.70632 | 37860 ft | 463 kts | 322° |
| 2026-05-06 18:24 | -3.08979 | 133.66762 | 37850 ft | 462 kts | 322° |
| 2026-05-06 18:25 | -3.03843 | 133.62890 | 37856 ft | 463 kts | 323° |
| 2026-05-06 18:25 | -2.98716 | 133.59001 | 37854 ft | 463 kts | 322° |
| 2026-05-06 18:26 | -2.93684 | 133.54992 | 37848 ft | 462 kts | 321° |
| 2026-05-06 18:26 | -2.88741 | 133.50974 | 37844 ft | 461 kts | 321° |
| 2026-05-06 18:27 | -2.83747 | 133.46941 | 37852 ft | 460 kts | 321° |
| 2026-05-06 18:27 | -2.78750 | 133.42921 | 37849 ft | 461 kts | 321° |
| 2026-05-06 18:28 | -2.73755 | 133.38908 | 37846 ft | 459 kts | 321° |
| 2026-05-06 18:28 | -2.68794 | 133.34921 | 37843 ft | 461 kts | 322° |
| 2026-05-06 18:29 | -2.63796 | 133.30909 | 37847 ft | 462 kts | 321° |
| 2026-05-06 18:29 | -2.58784 | 133.26883 | 37846 ft | 462 kts | 321° |
| 2026-05-06 18:30 | -2.53769 | 133.22863 | 37846 ft | 461 kts | 321° |
| 2026-05-06 18:30 | -2.48797 | 133.18874 | 37845 ft | 460 kts | 321° |
| 2026-05-06 18:31 | -2.43801 | 133.14876 | 37846 ft | 460 kts | 321° |
| 2026-05-06 18:31 | -2.38809 | 133.10873 | 37843 ft | 460 kts | 321° |
| 2026-05-06 18:32 | -2.33820 | 133.06866 | 37842 ft | 460 kts | 321° |
| 2026-05-06 18:32 | -2.28831 | 133.02861 | 37846 ft | 460 kts | 321° |
| 2026-05-06 18:33 | -2.23881 | 132.98888 | 37847 ft | 459 kts | 321° |
| 2026-05-06 18:33 | -2.18897 | 132.94889 | 37847 ft | 460 kts | 321° |
| 2026-05-06 18:34 | -2.13905 | 132.90886 | 37848 ft | 460 kts | 321° |
| 2026-05-06 18:34 | -2.08913 | 132.86886 | 37847 ft | 460 kts | 321° |
| 2026-05-06 18:35 | -2.03923 | 132.82884 | 37830 ft | 460 kts | 321° |
| 2026-05-06 18:35 | -1.98965 | 132.78906 | 37849 ft | 460 kts | 321° |
| 2026-05-06 18:36 | -1.93969 | 132.74901 | 37847 ft | 460 kts | 321° |
| 2026-05-06 18:36 | -1.88967 | 132.70893 | 37846 ft | 461 kts | 321° |
| 2026-05-06 18:37 | -1.84810 | 132.67561 | 37827 ft | 461 kts | 321° |
| 2026-05-06 18:37 | -1.78995 | 132.62898 | 37845 ft | 461 kts | 321° |
| 2026-05-06 18:38 | -1.73993 | 132.58889 | 37844 ft | 461 kts | 321° |
| 2026-05-06 18:38 | -1.68979 | 132.54872 | 37843 ft | 462 kts | 321° |
| 2026-05-06 18:39 | -1.63971 | 132.50859 | 37845 ft | 460 kts | 322° |
| 2026-05-06 18:40 | -1.56518 | 132.44885 | 37854 ft | 460 kts | 322° |
| 2026-05-06 18:40 | -1.51531 | 132.40889 | 37846 ft | 460 kts | 322° |
| 2026-05-06 18:41 | -1.46533 | 132.36889 | 37859 ft | 460 kts | 321° |
| 2026-05-06 18:41 | -1.41536 | 132.32885 | 37854 ft | 461 kts | 321° |
| 2026-05-06 18:42 | -1.36579 | 132.28910 | 37845 ft | 459 kts | 322° |
| 2026-05-06 18:42 | -1.31608 | 132.24929 | 37866 ft | 458 kts | 322° |
| 2026-05-06 18:43 | -1.26632 | 132.20945 | 37845 ft | 458 kts | 322° |
| 2026-05-06 18:43 | -1.21657 | 132.16960 | 37849 ft | 459 kts | 322° |
| 2026-05-06 18:44 | -1.16673 | 132.12966 | 37867 ft | 460 kts | 322° |
| 2026-05-06 18:44 | -1.11717 | 132.08992 | 37867 ft | 459 kts | 322° |
| 2026-05-06 18:45 | -1.06733 | 132.05014 | 37848 ft | 457 kts | 322° |
| 2026-05-06 18:45 | -1.01764 | 132.01028 | 37865 ft | 459 kts | 322° |
| 2026-05-06 18:46 | -0.96783 | 131.97058 | 37845 ft | 458 kts | 322° |
| 2026-05-06 18:46 | -0.91828 | 131.93079 | 37842 ft | 461 kts | 322° |
| 2026-05-06 18:47 | -0.86820 | 131.89069 | 37857 ft | 460 kts | 322° |
| 2026-05-06 18:47 | -0.81836 | 131.85081 | 37836 ft | 459 kts | 322° |
| 2026-05-06 18:48 | -0.76859 | 131.81091 | 37849 ft | 458 kts | 322° |
| 2026-05-06 18:48 | -0.71887 | 131.77105 | 37831 ft | 458 kts | 322° |
| 2026-05-06 18:49 | -0.66946 | 131.73147 | 37843 ft | 460 kts | 322° |
| 2026-05-06 18:49 | -0.61946 | 131.69136 | 37844 ft | 460 kts | 322° |
| 2026-05-06 18:50 | -0.56955 | 131.65136 | 37822 ft | 460 kts | 322° |
| 2026-05-06 18:50 | -0.51959 | 131.61144 | 37840 ft | 460 kts | 322° |
| 2026-05-06 18:51 | -0.46997 | 131.57170 | 37841 ft | 460 kts | 322° |
| 2026-05-06 18:51 | -0.41992 | 131.53168 | 37820 ft | 461 kts | 322° |
| 2026-05-06 18:52 | -0.36983 | 131.49160 | 37839 ft | 461 kts | 322° |
| 2026-05-06 18:52 | -0.31976 | 131.45149 | 37818 ft | 462 kts | 322° |
| 2026-05-06 18:53 | -0.26965 | 131.41138 | 37840 ft | 461 kts | 322° |
| 2026-05-06 18:53 | -0.21993 | 131.37158 | 37823 ft | 460 kts | 322° |
| 2026-05-06 18:54 | -0.16996 | 131.33164 | 37821 ft | 460 kts | 322° |
| 2026-05-06 18:54 | -0.11996 | 131.29160 | 37841 ft | 461 kts | 322° |
| 2026-05-06 18:55 | -0.06998 | 131.25156 | 37821 ft | 461 kts | 322° |
| 2026-05-06 18:55 | -0.02033 | 131.21180 | 37820 ft | 461 kts | 322° |
| 2026-05-06 18:56 | 0.02970 | 131.17177 | 37839 ft | 461 kts | 322° |
| 2026-05-06 18:56 | 0.07992 | 131.13156 | 37840 ft | 463 kts | 322° |
| 2026-05-06 18:57 | 0.13018 | 131.09128 | 37822 ft | 463 kts | 322° |
| 2026-05-06 18:57 | 0.17998 | 131.05139 | 37824 ft | 462 kts | 322° |
| 2026-05-06 18:58 | 0.23022 | 131.01120 | 37840 ft | 464 kts | 322° |
| 2026-05-06 18:58 | 0.28054 | 130.97096 | 37821 ft | 463 kts | 322° |
| 2026-05-06 18:59 | 0.33081 | 130.93074 | 37819 ft | 463 kts | 322° |
| 2026-05-06 18:59 | 0.38102 | 130.89055 | 37820 ft | 462 kts | 321° |
| 2026-05-06 19:00 | 0.43075 | 130.85053 | 37820 ft | 462 kts | 321° |
| 2026-05-06 19:00 | 0.48070 | 130.81054 | 37819 ft | 460 kts | 322° |
| 2026-05-06 19:01 | 0.53074 | 130.77061 | 37820 ft | 460 kts | 322° |
| 2026-05-06 19:01 | 0.58073 | 130.73065 | 37840 ft | 460 kts | 322° |
| 2026-05-06 19:02 | 0.63079 | 130.69059 | 37824 ft | 462 kts | 322° |
| 2026-05-06 19:02 | 0.68063 | 130.65067 | 37823 ft | 462 kts | 322° |
| 2026-05-06 19:03 | 0.73078 | 130.61053 | 37819 ft | 462 kts | 322° |
| 2026-05-06 19:03 | 0.78114 | 130.57039 | 37820 ft | 462 kts | 322° |
| 2026-05-06 19:04 | 0.83129 | 130.53020 | 37839 ft | 462 kts | 321° |
| 2026-05-06 19:04 | 0.88104 | 130.49020 | 37838 ft | 462 kts | 321° |
| 2026-05-06 19:05 | 0.93089 | 130.45001 | 37839 ft | 458 kts | 322° |
| 2026-05-06 19:05 | 0.98071 | 130.41028 | 37840 ft | 458 kts | 321° |
| 2026-05-06 19:06 | 1.03044 | 130.37057 | 37838 ft | 459 kts | 322° |
| 2026-05-06 19:06 | 1.07997 | 130.33103 | 37821 ft | 458 kts | 321° |
| 2026-05-06 19:07 | 1.12962 | 130.29112 | 37835 ft | 458 kts | 322° |
| 2026-05-06 19:07 | 1.17950 | 130.25116 | 37814 ft | 459 kts | 321° |
| 2026-05-06 19:08 | 1.22920 | 130.21135 | 37830 ft | 458 kts | 321° |
| 2026-05-06 19:08 | 1.27865 | 130.17177 | 37820 ft | 458 kts | 321° |
| 2026-05-06 19:09 | 1.32842 | 130.13215 | 37836 ft | 458 kts | 322° |
| 2026-05-06 19:09 | 1.37803 | 130.09217 | 37834 ft | 461 kts | 321° |
| 2026-05-06 19:10 | 1.42779 | 130.05209 | 37836 ft | 459 kts | 321° |
| 2026-05-06 19:10 | 1.47763 | 130.01222 | 37835 ft | 458 kts | 321° |
| 2026-05-06 19:11 | 1.52703 | 129.97277 | 37823 ft | 458 kts | 321° |
| 2026-05-06 19:11 | 1.57663 | 129.93300 | 37819 ft | 457 kts | 321° |
| 2026-05-06 19:12 | 1.62624 | 129.89323 | 37821 ft | 458 kts | 321° |
| 2026-05-06 19:12 | 1.67594 | 129.85344 | 37840 ft | 458 kts | 321° |
| 2026-05-06 19:13 | 1.72525 | 129.81390 | 37821 ft | 457 kts | 321° |
| 2026-05-06 19:13 | 1.77495 | 129.77403 | 37823 ft | 459 kts | 321° |
| 2026-05-06 19:14 | 1.82478 | 129.73407 | 37837 ft | 459 kts | 321° |
| 2026-05-06 19:14 | 1.87456 | 129.69418 | 37819 ft | 458 kts | 321° |
| 2026-05-06 19:15 | 1.92403 | 129.65460 | 37835 ft | 458 kts | 321° |
| 2026-05-06 19:15 | 1.97386 | 129.61478 | 37897 ft | 462 kts | 322° |
| 2026-05-06 19:15 | 1.99935 | 129.59512 | 38037 ft | 463 kts | 323° |
| 2026-05-06 19:16 | 2.02510 | 129.57579 | 38198 ft | 463 kts | 323° |
| 2026-05-06 19:16 | 2.07695 | 129.53719 | 38446 ft | 465 kts | 323° |
| 2026-05-06 19:16 | 2.10276 | 129.51789 | 38670 ft | 462 kts | 323° |
| 2026-05-06 19:17 | 2.12852 | 129.49858 | 38842 ft | 462 kts | 323° |
| 2026-05-06 19:17 | 2.15422 | 129.47933 | 38956 ft | 462 kts | 323° |
| 2026-05-06 19:17 | 2.17956 | 129.46023 | 39049 ft | 463 kts | 323° |
| 2026-05-06 19:17 | 2.20524 | 129.44082 | 39172 ft | 464 kts | 322° |
| 2026-05-06 19:18 | 2.23091 | 129.42147 | 39324 ft | 462 kts | 323° |
| 2026-05-06 19:18 | 2.28224 | 129.38272 | 39505 ft | 463 kts | 322° |
| 2026-05-06 19:18 | 2.30787 | 129.36331 | 39630 ft | 462 kts | 323° |
| 2026-05-06 19:19 | 2.33346 | 129.34390 | 39708 ft | 463 kts | 322° |
| 2026-05-06 19:19 | 2.38490 | 129.30497 | 39821 ft | 464 kts | 322° |
| 2026-05-06 19:20 | 2.43630 | 129.26619 | 39828 ft | 469 kts | 322° |
| 2026-05-06 19:20 | 2.48855 | 129.22686 | 39827 ft | 470 kts | 322° |
| 2026-05-06 19:21 | 2.54069 | 129.18746 | 39827 ft | 469 kts | 322° |
| 2026-05-06 19:21 | 2.59273 | 129.14811 | 39825 ft | 469 kts | 322° |
| 2026-05-06 19:22 | 2.64473 | 129.10877 | 39826 ft | 469 kts | 322° |
| 2026-05-06 19:22 | 2.69642 | 129.06973 | 39827 ft | 470 kts | 322° |
| 2026-05-06 19:23 | 2.74862 | 129.03031 | 39826 ft | 470 kts | 322° |
| 2026-05-06 19:23 | 2.80083 | 128.99086 | 39825 ft | 470 kts | 322° |
| 2026-05-06 19:24 | 2.84418 | 128.95807 | 39827 ft | 470 kts | 322° |
| 2026-05-06 19:24 | 2.89631 | 128.91867 | 39828 ft | 469 kts | 322° |
| 2026-05-06 19:25 | 2.95690 | 128.87291 | 39826 ft | 470 kts | 322° |
| 2026-05-06 19:25 | 3.00916 | 128.83341 | 39825 ft | 471 kts | 322° |
| 2026-05-06 19:26 | 3.05257 | 128.80058 | 39827 ft | 470 kts | 322° |
| 2026-05-06 19:26 | 3.10470 | 128.76114 | 39826 ft | 470 kts | 322° |
| 2026-05-06 19:27 | 3.16526 | 128.71533 | 39825 ft | 470 kts | 322° |
| 2026-05-06 19:27 | 3.21745 | 128.67586 | 39823 ft | 470 kts | 322° |
| 2026-05-06 19:28 | 3.26087 | 128.64305 | 39824 ft | 470 kts | 322° |
| 2026-05-06 19:28 | 3.31306 | 128.60355 | 39826 ft | 470 kts | 322° |
| 2026-05-06 19:29 | 3.36519 | 128.56409 | 39827 ft | 470 kts | 322° |
| 2026-05-06 19:29 | 3.41739 | 128.52457 | 39826 ft | 471 kts | 322° |
| 2026-05-06 19:30 | 3.46930 | 128.48527 | 39824 ft | 471 kts | 322° |
| 2026-05-06 19:30 | 3.52156 | 128.44571 | 39826 ft | 471 kts | 322° |
| 2026-05-06 19:31 | 3.57369 | 128.40622 | 39824 ft | 469 kts | 322° |
| 2026-05-06 19:31 | 3.65180 | 128.34706 | 39824 ft | 469 kts | 322° |
| 2026-05-06 19:32 | 3.70391 | 128.30762 | 39822 ft | 469 kts | 322° |
| 2026-05-06 19:32 | 3.75558 | 128.26849 | 39823 ft | 469 kts | 322° |
| 2026-05-06 19:33 | 3.80762 | 128.22907 | 39826 ft | 469 kts | 322° |
| 2026-05-06 19:33 | 3.85959 | 128.18968 | 39820 ft | 469 kts | 322° |
| 2026-05-06 19:34 | 3.91161 | 128.15025 | 39820 ft | 469 kts | 322° |
| 2026-05-06 19:34 | 3.96327 | 128.11110 | 39820 ft | 468 kts | 322° |
| 2026-05-06 19:35 | 4.01514 | 128.07177 | 39821 ft | 468 kts | 322° |
| 2026-05-06 19:35 | 4.06673 | 128.03207 | 39821 ft | 468 kts | 322° |
| 2026-05-06 19:36 | 4.11818 | 127.99222 | 39822 ft | 468 kts | 322° |
| 2026-05-06 19:36 | 4.16967 | 127.95240 | 39825 ft | 468 kts | 322° |
| 2026-05-06 19:37 | 4.22082 | 127.91292 | 39818 ft | 467 kts | 322° |
| 2026-05-06 19:37 | 4.27219 | 127.87329 | 39822 ft | 465 kts | 322° |
| 2026-05-06 19:38 | 4.32339 | 127.83378 | 39827 ft | 465 kts | 322° |
| 2026-05-06 19:38 | 4.37460 | 127.79426 | 39820 ft | 465 kts | 322° |
| 2026-05-06 19:39 | 4.42545 | 127.75500 | 39820 ft | 464 kts | 322° |
| 2026-05-06 19:39 | 4.47661 | 127.71549 | 39820 ft | 464 kts | 322° |
| 2026-05-06 19:40 | 4.52783 | 127.67594 | 39820 ft | 465 kts | 322° |
| 2026-05-06 19:40 | 4.57898 | 127.63643 | 39820 ft | 464 kts | 322° |
| 2026-05-06 19:41 | 4.62971 | 127.59723 | 39818 ft | 463 kts | 322° |
| 2026-05-06 19:41 | 4.68076 | 127.55778 | 39820 ft | 463 kts | 322° |
| 2026-05-06 19:42 | 4.73193 | 127.51823 | 39822 ft | 464 kts | 322° |
| 2026-05-06 19:42 | 4.78302 | 127.47873 | 39817 ft | 463 kts | 322° |
| 2026-05-06 19:43 | 4.83409 | 127.43925 | 39821 ft | 464 kts | 322° |
| 2026-05-06 19:43 | 4.88481 | 127.40002 | 39820 ft | 463 kts | 322° |
| 2026-05-06 19:44 | 4.93577 | 127.36061 | 39821 ft | 462 kts | 322° |
| 2026-05-06 19:44 | 4.98666 | 127.32123 | 39821 ft | 462 kts | 322° |
| 2026-05-06 19:45 | 5.03758 | 127.28183 | 39821 ft | 462 kts | 322° |
| 2026-05-06 19:45 | 5.08819 | 127.24268 | 39820 ft | 462 kts | 322° |
| 2026-05-06 19:46 | 5.13911 | 127.20327 | 39819 ft | 462 kts | 322° |
| 2026-05-06 19:46 | 5.19001 | 127.16384 | 39819 ft | 461 kts | 322° |
| 2026-05-06 19:47 | 5.24054 | 127.12471 | 39821 ft | 456 kts | 322° |
| 2026-05-06 19:47 | 5.29029 | 127.08615 | 39820 ft | 455 kts | 322° |
| 2026-05-06 19:48 | 5.34030 | 127.04729 | 39820 ft | 454 kts | 322° |
| 2026-05-06 19:48 | 5.39031 | 127.00848 | 39823 ft | 455 kts | 322° |
| 2026-05-06 19:49 | 5.44050 | 126.96967 | 39823 ft | 456 kts | 322° |
| 2026-05-06 19:49 | 5.49040 | 126.93105 | 39824 ft | 456 kts | 322° |
| 2026-05-06 19:50 | 5.54054 | 126.89220 | 39819 ft | 455 kts | 322° |
| 2026-05-06 19:50 | 5.59066 | 126.85334 | 39819 ft | 455 kts | 322° |
| 2026-05-06 19:51 | 5.64076 | 126.81451 | 39823 ft | 455 kts | 322° |
| 2026-05-06 19:51 | 5.69086 | 126.77563 | 39823 ft | 455 kts | 322° |
| 2026-05-06 19:52 | 5.74056 | 126.73698 | 39821 ft | 455 kts | 322° |
| 2026-05-06 19:52 | 5.79079 | 126.69799 | 39837 ft | 457 kts | 322° |
| 2026-05-06 19:53 | 5.84112 | 126.65894 | 39821 ft | 458 kts | 322° |
| 2026-05-06 19:53 | 5.89153 | 126.61980 | 39816 ft | 458 kts | 322° |
| 2026-05-06 19:54 | 5.94194 | 126.58064 | 39820 ft | 458 kts | 322° |
| 2026-05-06 19:54 | 5.99209 | 126.54167 | 39820 ft | 459 kts | 322° |
| 2026-05-06 19:55 | 6.04244 | 126.50254 | 39821 ft | 458 kts | 322° |
| 2026-05-06 19:55 | 6.09288 | 126.46328 | 39819 ft | 460 kts | 322° |
| 2026-05-06 19:56 | 6.14322 | 126.42412 | 39817 ft | 461 kts | 322° |
| 2026-05-06 19:56 | 6.19407 | 126.38459 | 39834 ft | 463 kts | 323° |
| 2026-05-06 19:57 | 6.24506 | 126.34496 | 39819 ft | 463 kts | 323° |
| 2026-05-06 19:57 | 6.29605 | 126.30529 | 39820 ft | 463 kts | 323° |
| 2026-05-06 19:58 | 6.34701 | 126.26563 | 39819 ft | 463 kts | 323° |
| 2026-05-06 19:58 | 6.39763 | 126.22631 | 39821 ft | 463 kts | 322° |
| 2026-05-06 19:59 | 6.44857 | 126.18659 | 39824 ft | 464 kts | 322° |
| 2026-05-06 19:59 | 6.49954 | 126.14685 | 39823 ft | 463 kts | 322° |
| 2026-05-06 20:00 | 6.55049 | 126.10714 | 39837 ft | 463 kts | 322° |
| 2026-05-06 20:00 | 6.60144 | 126.06743 | 39821 ft | 463 kts | 322° |
| 2026-05-06 20:01 | 6.65204 | 126.02799 | 39824 ft | 463 kts | 322° |
| 2026-05-06 20:01 | 6.70299 | 125.98825 | 39823 ft | 463 kts | 322° |
| 2026-05-06 20:02 | 6.75398 | 125.94852 | 39824 ft | 464 kts | 322° |
| 2026-05-06 20:02 | 6.80507 | 125.90863 | 39831 ft | 466 kts | 322° |
| 2026-05-06 20:03 | 6.85600 | 125.86889 | 39848 ft | 460 kts | 322° |
| 2026-05-06 20:03 | 6.90629 | 125.82974 | 39838 ft | 461 kts | 322° |
| 2026-05-06 20:04 | 6.95714 | 125.79006 | 39832 ft | 463 kts | 322° |
| 2026-05-06 20:04 | 7.00827 | 125.75000 | 39835 ft | 465 kts | 322° |
| 2026-05-06 20:05 | 7.05947 | 125.71011 | 39852 ft | 465 kts | 323° |
| 2026-05-06 20:05 | 7.11073 | 125.67005 | 39851 ft | 466 kts | 322° |
| 2026-05-06 20:06 | 7.16134 | 125.63012 | 39863 ft | 464 kts | 322° |
| 2026-05-06 20:06 | 7.21155 | 125.58925 | 39844 ft | 464 kts | 321° |
| 2026-05-06 20:07 | 7.26170 | 125.54827 | 39854 ft | 464 kts | 321° |
| 2026-05-06 20:07 | 7.31166 | 125.50735 | 39858 ft | 464 kts | 322° |
| 2026-05-06 20:08 | 7.36173 | 125.46676 | 39863 ft | 466 kts | 322° |
| 2026-05-06 20:08 | 7.41231 | 125.42595 | 39868 ft | 466 kts | 322° |
| 2026-05-06 20:09 | 7.46289 | 125.38501 | 39864 ft | 467 kts | 322° |
| 2026-05-06 20:09 | 7.51352 | 125.34389 | 39880 ft | 468 kts | 321° |
| 2026-05-06 20:10 | 7.56417 | 125.30263 | 39866 ft | 469 kts | 321° |
| 2026-05-06 20:10 | 7.61451 | 125.26161 | 39882 ft | 468 kts | 321° |
| 2026-05-06 20:11 | 7.66512 | 125.22044 | 39886 ft | 468 kts | 321° |
| 2026-05-06 20:11 | 7.71581 | 125.17930 | 39874 ft | 467 kts | 321° |
| 2026-05-06 20:12 | 7.76645 | 125.13815 | 39887 ft | 468 kts | 321° |
| 2026-05-06 20:12 | 7.81713 | 125.09693 | 39888 ft | 469 kts | 321° |
| 2026-05-06 20:13 | 7.86756 | 125.05588 | 39882 ft | 469 kts | 321° |
| 2026-05-06 20:13 | 7.91830 | 125.01456 | 39903 ft | 469 kts | 321° |
| 2026-05-06 20:14 | 7.96905 | 124.97322 | 39892 ft | 469 kts | 321° |
| 2026-05-06 20:14 | 8.01989 | 124.93189 | 39907 ft | 470 kts | 321° |
| 2026-05-06 20:15 | 8.07035 | 124.89077 | 39909 ft | 468 kts | 322° |
| 2026-05-06 20:15 | 8.12109 | 124.84946 | 39893 ft | 470 kts | 321° |
| 2026-05-06 20:16 | 8.17197 | 124.80794 | 39895 ft | 470 kts | 321° |
| 2026-05-06 20:16 | 8.22281 | 124.76647 | 39894 ft | 470 kts | 321° |
| 2026-05-06 20:17 | 8.27373 | 124.72494 | 39876 ft | 470 kts | 321° |
| 2026-05-06 20:17 | 8.32416 | 124.68382 | 39878 ft | 469 kts | 321° |
| 2026-05-06 20:18 | 8.37492 | 124.64239 | 39865 ft | 469 kts | 321° |
| 2026-05-06 20:18 | 8.42722 | 124.60326 | 39858 ft | 468 kts | 329° |
| 2026-05-06 20:19 | 8.48329 | 124.56968 | 39851 ft | 469 kts | 330° |
| 2026-05-06 20:19 | 8.54000 | 124.53708 | 39843 ft | 469 kts | 331° |
| 2026-05-06 20:20 | 8.59643 | 124.50474 | 39837 ft | 469 kts | 331° |
| 2026-05-06 20:20 | 8.65317 | 124.47209 | 39830 ft | 469 kts | 331° |
| 2026-05-06 20:21 | 8.70996 | 124.43930 | 39825 ft | 471 kts | 331° |
| 2026-05-06 20:21 | 8.76677 | 124.40646 | 39826 ft | 471 kts | 331° |
| 2026-05-06 20:22 | 8.82366 | 124.37350 | 39834 ft | 473 kts | 331° |
| 2026-05-06 20:22 | 8.88049 | 124.34065 | 39831 ft | 473 kts | 331° |
| 2026-05-06 20:23 | 8.93764 | 124.30763 | 39833 ft | 473 kts | 332° |
| 2026-05-06 20:23 | 8.99493 | 124.27453 | 39832 ft | 474 kts | 331° |
| 2026-05-06 20:24 | 9.05218 | 124.24148 | 39831 ft | 473 kts | 331° |
| 2026-05-06 20:24 | 9.10924 | 124.20841 | 39833 ft | 473 kts | 330° |
| 2026-05-06 20:25 | 9.16597 | 124.17542 | 39833 ft | 474 kts | 330° |
| 2026-05-06 20:25 | 9.22297 | 124.14231 | 39831 ft | 474 kts | 330° |
| 2026-05-06 20:26 | 9.28014 | 124.10910 | 39833 ft | 474 kts | 330° |
| 2026-05-06 20:26 | 9.33733 | 124.07589 | 39837 ft | 474 kts | 330° |
| 2026-05-06 20:27 | 9.39452 | 124.04272 | 39838 ft | 474 kts | 331° |
| 2026-05-06 20:27 | 9.45146 | 124.00988 | 39840 ft | 474 kts | 331° |
| 2026-05-06 20:28 | 9.50888 | 123.97679 | 39835 ft | 475 kts | 331° |
| 2026-05-06 20:28 | 9.56626 | 123.94351 | 39835 ft | 475 kts | 330° |
| 2026-05-06 20:29 | 9.62358 | 123.91010 | 39834 ft | 475 kts | 330° |
| 2026-05-06 20:29 | 9.68050 | 123.87696 | 39841 ft | 475 kts | 330° |
| 2026-05-06 20:30 | 9.76660 | 123.82689 | 39844 ft | 475 kts | 330° |
| 2026-05-06 20:31 | 9.82395 | 123.79353 | 39845 ft | 475 kts | 330° |
| 2026-05-06 20:31 | 9.88135 | 123.76018 | 39845 ft | 475 kts | 330° |
| 2026-05-06 20:32 | 9.93837 | 123.72715 | 39843 ft | 475 kts | 330° |
| 2026-05-06 20:32 | 9.99565 | 123.69364 | 39847 ft | 475 kts | 330° |
| 2026-05-06 20:33 | 10.05294 | 123.66010 | 39853 ft | 476 kts | 330° |
| 2026-05-06 20:33 | 10.11038 | 123.62654 | 39852 ft | 476 kts | 330° |
| 2026-05-06 20:34 | 10.16764 | 123.59304 | 39849 ft | 475 kts | 330° |
| 2026-05-06 20:34 | 10.22486 | 123.55962 | 39854 ft | 474 kts | 330° |
| 2026-05-06 20:35 | 10.28182 | 123.52636 | 39859 ft | 477 kts | 330° |
| 2026-05-06 20:35 | 10.33922 | 123.49286 | 39860 ft | 477 kts | 330° |
| 2026-05-06 20:36 | 10.39671 | 123.45936 | 39862 ft | 476 kts | 330° |
| 2026-05-06 20:36 | 10.45403 | 123.42590 | 39861 ft | 475 kts | 330° |
| 2026-05-06 20:37 | 10.51087 | 123.39269 | 39862 ft | 474 kts | 330° |
| 2026-05-06 20:37 | 10.56800 | 123.35921 | 39874 ft | 473 kts | 330° |
| 2026-05-06 20:38 | 10.62515 | 123.32583 | 39873 ft | 475 kts | 330° |
| 2026-05-06 20:38 | 10.68244 | 123.29252 | 39871 ft | 473 kts | 330° |
| 2026-05-06 20:39 | 10.73945 | 123.25923 | 39866 ft | 474 kts | 329° |
| 2026-05-06 20:39 | 10.79626 | 123.22598 | 39861 ft | 475 kts | 329° |
| 2026-05-06 20:40 | 10.85342 | 123.19235 | 39866 ft | 475 kts | 329° |
| 2026-05-06 20:40 | 10.91073 | 123.15876 | 39863 ft | 475 kts | 329° |
| 2026-05-06 20:41 | 10.96799 | 123.12524 | 39863 ft | 476 kts | 329° |
| 2026-05-06 20:41 | 11.02480 | 123.09169 | 39859 ft | 475 kts | 329° |
| 2026-05-06 20:42 | 11.08205 | 123.05806 | 39866 ft | 476 kts | 329° |
| 2026-05-06 20:42 | 11.13909 | 123.02426 | 39859 ft | 474 kts | 329° |
| 2026-05-06 20:43 | 11.19635 | 122.99081 | 39865 ft | 477 kts | 329° |
| 2026-05-06 20:43 | 11.25335 | 122.95741 | 39858 ft | 475 kts | 329° |
| 2026-05-06 20:44 | 11.31048 | 122.92378 | 39863 ft | 474 kts | 329° |
| 2026-05-06 20:44 | 11.36772 | 122.89015 | 39857 ft | 474 kts | 329° |
| 2026-05-06 20:45 | 11.42486 | 122.85651 | 39861 ft | 473 kts | 329° |
| 2026-05-06 20:45 | 11.48132 | 122.82320 | 39867 ft | 472 kts | 329° |
| 2026-05-06 20:46 | 11.53810 | 122.78972 | 39867 ft | 472 kts | 329° |
| 2026-05-06 20:46 | 11.59491 | 122.75623 | 39865 ft | 472 kts | 329° |
| 2026-05-06 20:47 | 11.65067 | 122.72093 | 39858 ft | 471 kts | 325° |
| 2026-05-06 20:47 | 11.70498 | 122.68337 | 39867 ft | 472 kts | 324° |
| 2026-05-06 20:48 | 11.75894 | 122.64618 | 39868 ft | 471 kts | 325° |
| 2026-05-06 20:48 | 11.81352 | 122.60915 | 39860 ft | 471 kts | 325° |
| 2026-05-06 20:49 | 11.86829 | 122.57224 | 39864 ft | 470 kts | 326° |
| 2026-05-06 20:49 | 11.92279 | 122.53553 | 39861 ft | 469 kts | 325° |
| 2026-05-06 20:50 | 11.97689 | 122.49906 | 39859 ft | 470 kts | 325° |
| 2026-05-06 20:50 | 12.03149 | 122.46220 | 39863 ft | 471 kts | 325° |
| 2026-05-06 20:51 | 12.08604 | 122.42537 | 39865 ft | 469 kts | 325° |
| 2026-05-06 20:51 | 12.14041 | 122.38865 | 39865 ft | 468 kts | 325° |
| 2026-05-06 20:52 | 12.19438 | 122.35221 | 39866 ft | 468 kts | 325° |
| 2026-05-06 20:52 | 12.24870 | 122.31543 | 39862 ft | 468 kts | 325° |
| 2026-05-06 20:53 | 12.30304 | 122.27864 | 39867 ft | 468 kts | 325° |
| 2026-05-06 20:53 | 12.35738 | 122.24185 | 39862 ft | 468 kts | 325° |
| 2026-05-06 20:54 | 12.41154 | 122.20489 | 39872 ft | 468 kts | 324° |
| 2026-05-06 20:54 | 12.46486 | 122.16772 | 39869 ft | 467 kts | 323° |
| 2026-05-06 20:55 | 12.51850 | 122.13024 | 39870 ft | 466 kts | 324° |
| 2026-05-06 20:55 | 12.57207 | 122.09293 | 39866 ft | 466 kts | 324° |
| 2026-05-06 20:56 | 12.62574 | 122.05561 | 39876 ft | 466 kts | 323° |
| 2026-05-06 20:56 | 12.67924 | 122.01840 | 39872 ft | 465 kts | 323° |
| 2026-05-06 20:57 | 12.73231 | 121.98147 | 39865 ft | 464 kts | 323° |
| 2026-05-06 20:57 | 12.78574 | 121.94427 | 39871 ft | 464 kts | 323° |
| 2026-05-06 20:58 | 12.83901 | 121.90715 | 39870 ft | 463 kts | 323° |
| 2026-05-06 20:58 | 12.89228 | 121.87001 | 39875 ft | 463 kts | 323° |
| 2026-05-06 20:59 | 12.94550 | 121.83289 | 39876 ft | 463 kts | 323° |
| 2026-05-06 20:59 | 12.99834 | 121.79601 | 39880 ft | 463 kts | 323° |
| 2026-05-06 21:00 | 13.05153 | 121.75888 | 39887 ft | 462 kts | 323° |
| 2026-05-06 21:00 | 13.10465 | 121.72177 | 39887 ft | 462 kts | 323° |
| 2026-05-06 21:01 | 13.15775 | 121.68465 | 39883 ft | 462 kts | 323° |
| 2026-05-06 21:01 | 13.21047 | 121.64778 | 39873 ft | 462 kts | 323° |
| 2026-05-06 21:02 | 13.26352 | 121.61066 | 39892 ft | 462 kts | 323° |
| 2026-05-06 21:02 | 13.31660 | 121.57351 | 39893 ft | 462 kts | 323° |
| 2026-05-06 21:03 | 13.36967 | 121.53633 | 39876 ft | 462 kts | 323° |
| 2026-05-06 21:03 | 13.42238 | 121.49940 | 39892 ft | 461 kts | 323° |
| 2026-05-06 21:04 | 13.47527 | 121.46230 | 39892 ft | 460 kts | 323° |
| 2026-05-06 21:04 | 13.52805 | 121.42528 | 39889 ft | 459 kts | 323° |
| 2026-05-06 21:05 | 13.58089 | 121.38821 | 39889 ft | 459 kts | 323° |
| 2026-05-06 21:05 | 13.63377 | 121.35139 | 39889 ft | 460 kts | 323° |
| 2026-05-06 21:06 | 13.68642 | 121.31476 | 39883 ft | 459 kts | 323° |
| 2026-05-06 21:06 | 13.73937 | 121.27789 | 39889 ft | 459 kts | 323° |
| 2026-05-06 21:07 | 13.79231 | 121.24100 | 39894 ft | 460 kts | 323° |
| 2026-05-06 21:07 | 13.84522 | 121.20411 | 39894 ft | 460 kts | 323° |
| 2026-05-06 21:08 | 13.89776 | 121.16744 | 39894 ft | 460 kts | 323° |
| 2026-05-06 21:08 | 13.95267 | 121.13358 | 39892 ft | 463 kts | 334° |
| 2026-05-06 21:09 | 14.01482 | 121.11506 | 39893 ft | 467 kts | 345° |
| 2026-05-06 21:09 | 14.07883 | 121.10243 | 39892 ft | 469 kts | 347° |
| 2026-05-06 21:10 | 14.14312 | 121.09072 | 39893 ft | 469 kts | 347° |
| 2026-05-06 21:10 | 14.20728 | 121.07885 | 39889 ft | 468 kts | 347° |
| 2026-05-06 21:11 | 14.27094 | 121.06681 | 39886 ft | 468 kts | 347° |
| 2026-05-06 21:11 | 14.33502 | 121.05460 | 39887 ft | 468 kts | 347° |
| 2026-05-06 21:12 | 14.39907 | 121.04239 | 39885 ft | 468 kts | 347° |
| 2026-05-06 21:12 | 14.46314 | 121.03016 | 39885 ft | 467 kts | 347° |
| 2026-05-06 21:13 | 14.52354 | 121.00902 | 39885 ft | 459 kts | 329° |
| 2026-05-06 21:13 | 14.57809 | 120.97502 | 39883 ft | 458 kts | 324° |
| 2026-05-06 21:14 | 14.63131 | 120.93884 | 39883 ft | 458 kts | 324° |
| 2026-05-06 21:14 | 14.68442 | 120.90237 | 39889 ft | 458 kts | 324° |
| 2026-05-06 21:15 | 14.73732 | 120.86637 | 39889 ft | 458 kts | 324° |
| 2026-05-06 21:15 | 14.79056 | 120.83020 | 39895 ft | 458 kts | 324° |
| 2026-05-06 21:16 | 14.84382 | 120.79401 | 39894 ft | 458 kts | 324° |
| 2026-05-06 21:16 | 14.89703 | 120.75786 | 39898 ft | 458 kts | 324° |
| 2026-05-06 21:17 | 14.94995 | 120.72190 | 39904 ft | 458 kts | 324° |
| 2026-05-06 21:17 | 15.00321 | 120.68574 | 39905 ft | 458 kts | 324° |
| 2026-05-06 21:18 | 15.05642 | 120.64949 | 39910 ft | 458 kts | 324° |
| 2026-05-06 21:18 | 15.10962 | 120.61323 | 39915 ft | 458 kts | 325° |
| 2026-05-06 21:19 | 15.16283 | 120.57697 | 39912 ft | 458 kts | 325° |
| 2026-05-06 21:19 | 15.21627 | 120.54171 | 39912 ft | 459 kts | 329° |
| 2026-05-06 21:20 | 15.27255 | 120.51049 | 39912 ft | 459 kts | 331° |
| 2026-05-06 21:20 | 15.32924 | 120.47999 | 39914 ft | 459 kts | 330° |
| 2026-05-06 21:21 | 15.38560 | 120.44887 | 39913 ft | 459 kts | 330° |
| 2026-05-06 21:21 | 15.44184 | 120.41735 | 39916 ft | 459 kts | 330° |
| 2026-05-06 21:22 | 15.49750 | 120.38594 | 39918 ft | 459 kts | 330° |
| 2026-05-06 21:22 | 15.55353 | 120.35439 | 39919 ft | 458 kts | 330° |
| 2026-05-06 21:23 | 15.60940 | 120.32281 | 39912 ft | 458 kts | 330° |
| 2026-05-06 21:23 | 15.66540 | 120.29114 | 39910 ft | 458 kts | 330° |
| 2026-05-06 21:24 | 15.72141 | 120.25958 | 39905 ft | 458 kts | 330° |
| 2026-05-06 21:24 | 15.77696 | 120.22815 | 39906 ft | 458 kts | 330° |
| 2026-05-06 21:25 | 15.83277 | 120.19655 | 39899 ft | 457 kts | 330° |
| 2026-05-06 21:25 | 15.88853 | 120.16499 | 39898 ft | 456 kts | 330° |
| 2026-05-06 21:26 | 15.94390 | 120.13364 | 39891 ft | 456 kts | 330° |
| 2026-05-06 21:26 | 15.99966 | 120.10206 | 39889 ft | 456 kts | 330° |
| 2026-05-06 21:27 | 16.05532 | 120.07051 | 39890 ft | 456 kts | 330° |
| 2026-05-06 21:27 | 16.11109 | 120.03887 | 39882 ft | 456 kts | 330° |
| 2026-05-06 21:28 | 16.16640 | 120.00747 | 39884 ft | 456 kts | 330° |
| 2026-05-06 21:28 | 16.22207 | 119.97584 | 39884 ft | 455 kts | 329° |
| 2026-05-06 21:29 | 16.27765 | 119.94424 | 39885 ft | 455 kts | 330° |
| 2026-05-06 21:29 | 16.33331 | 119.91259 | 39881 ft | 456 kts | 330° |
| 2026-05-06 21:30 | 16.38895 | 119.88094 | 39883 ft | 456 kts | 330° |
| 2026-05-06 21:30 | 16.44456 | 119.84927 | 39883 ft | 456 kts | 329° |
| 2026-05-06 21:31 | 16.49983 | 119.81777 | 39877 ft | 456 kts | 330° |
| 2026-05-06 21:31 | 16.55541 | 119.78608 | 39877 ft | 456 kts | 330° |
| 2026-05-06 21:32 | 16.61102 | 119.75435 | 39878 ft | 455 kts | 330° |
| 2026-05-06 21:32 | 16.69442 | 119.70672 | 39875 ft | 455 kts | 329° |
| 2026-05-06 21:33 | 16.74958 | 119.67520 | 39878 ft | 455 kts | 329° |
| 2026-05-06 21:33 | 16.80512 | 119.64343 | 39877 ft | 455 kts | 329° |
| 2026-05-06 21:34 | 16.86063 | 119.61166 | 39876 ft | 454 kts | 329° |
| 2026-05-06 21:34 | 16.91604 | 119.57992 | 39876 ft | 454 kts | 329° |
| 2026-05-06 21:35 | 16.97149 | 119.54815 | 39876 ft | 454 kts | 329° |
| 2026-05-06 21:35 | 17.02650 | 119.51660 | 39882 ft | 454 kts | 329° |
| 2026-05-06 21:36 | 17.08188 | 119.48482 | 39876 ft | 454 kts | 329° |
| 2026-05-06 21:36 | 17.13728 | 119.45301 | 39878 ft | 454 kts | 329° |
| 2026-05-06 21:37 | 17.19261 | 119.42121 | 39878 ft | 454 kts | 329° |
| 2026-05-06 21:37 | 17.24793 | 119.38939 | 39878 ft | 454 kts | 329° |
| 2026-05-06 21:38 | 17.30287 | 119.35778 | 39877 ft | 454 kts | 329° |
| 2026-05-06 21:38 | 17.35813 | 119.32596 | 39880 ft | 454 kts | 329° |
| 2026-05-06 21:39 | 17.41343 | 119.29410 | 39878 ft | 454 kts | 329° |
| 2026-05-06 21:39 | 17.46873 | 119.26221 | 39877 ft | 454 kts | 329° |
| 2026-05-06 21:40 | 17.52365 | 119.23052 | 39878 ft | 454 kts | 329° |
| 2026-05-06 21:40 | 17.57891 | 119.19860 | 39877 ft | 454 kts | 329° |
| 2026-05-06 21:41 | 17.63423 | 119.16664 | 39877 ft | 454 kts | 329° |
| 2026-05-06 21:41 | 17.68954 | 119.13465 | 39878 ft | 454 kts | 329° |
| 2026-05-06 21:42 | 17.74479 | 119.10268 | 39880 ft | 454 kts | 329° |
| 2026-05-06 21:42 | 17.79972 | 119.07087 | 39880 ft | 454 kts | 329° |
| 2026-05-06 21:43 | 17.85498 | 119.03885 | 39878 ft | 454 kts | 329° |
| 2026-05-06 21:43 | 17.91023 | 119.00681 | 39886 ft | 454 kts | 329° |
| 2026-05-06 21:44 | 17.95615 | 118.98017 | 39886 ft | 454 kts | 329° |
| 2026-05-06 21:44 | 18.01439 | 118.93426 | 39890 ft | 450 kts | 314° |
| 2026-05-06 21:45 | 18.05807 | 118.88707 | 39882 ft | 450 kts | 312° |
| 2026-05-06 21:45 | 18.09357 | 118.84701 | 39883 ft | 451 kts | 312° |
| 2026-05-06 21:46 | 18.13625 | 118.79869 | 39885 ft | 450 kts | 312° |
| 2026-05-06 21:46 | 18.17897 | 118.75058 | 39889 ft | 450 kts | 312° |
| 2026-05-06 21:47 | 18.22865 | 118.69479 | 39892 ft | 450 kts | 312° |
| 2026-05-06 21:47 | 18.26448 | 118.65455 | 39890 ft | 450 kts | 312° |
| 2026-05-06 21:48 | 18.30695 | 118.60680 | 39892 ft | 450 kts | 312° |
| 2026-05-06 21:48 | 18.34969 | 118.55870 | 39895 ft | 450 kts | 312° |
| 2026-05-06 21:49 | 18.39244 | 118.51057 | 39890 ft | 450 kts | 312° |
| 2026-05-06 21:49 | 18.43513 | 118.46244 | 39896 ft | 450 kts | 312° |
| 2026-05-06 21:50 | 18.47752 | 118.41463 | 39895 ft | 450 kts | 312° |
| 2026-05-06 21:50 | 18.52019 | 118.36645 | 39892 ft | 449 kts | 312° |
| 2026-05-06 21:51 | 18.56276 | 118.31837 | 39896 ft | 448 kts | 312° |
| 2026-05-06 21:51 | 18.60528 | 118.27030 | 39894 ft | 448 kts | 312° |
| 2026-05-06 21:52 | 18.64782 | 118.22217 | 39898 ft | 448 kts | 312° |
| 2026-05-06 21:52 | 18.69003 | 118.17434 | 39897 ft | 448 kts | 312° |
| 2026-05-06 21:53 | 18.73256 | 118.12616 | 39903 ft | 449 kts | 312° |
| 2026-05-06 21:53 | 18.77502 | 118.07801 | 39901 ft | 449 kts | 312° |
| 2026-05-06 21:54 | 18.81727 | 118.03006 | 39901 ft | 449 kts | 312° |
| 2026-05-06 21:54 | 18.85978 | 117.98177 | 39903 ft | 449 kts | 311° |
| 2026-05-06 21:55 | 18.90223 | 117.93351 | 39907 ft | 448 kts | 311° |
| 2026-05-06 21:55 | 18.94458 | 117.88533 | 39909 ft | 448 kts | 311° |
| 2026-05-06 21:56 | 18.98696 | 117.83707 | 39904 ft | 448 kts | 311° |
| 2026-05-06 21:56 | 19.02900 | 117.78917 | 39904 ft | 448 kts | 311° |
| 2026-05-06 21:57 | 19.07139 | 117.74091 | 39910 ft | 448 kts | 311° |
| 2026-05-06 21:57 | 19.11371 | 117.69259 | 39909 ft | 448 kts | 311° |
| 2026-05-06 21:58 | 19.15597 | 117.64435 | 39914 ft | 447 kts | 311° |
| 2026-05-06 21:58 | 19.19791 | 117.59637 | 39914 ft | 447 kts | 311° |
| 2026-05-06 21:59 | 19.24017 | 117.54800 | 39915 ft | 447 kts | 311° |
| 2026-05-06 21:59 | 19.28228 | 117.49977 | 39915 ft | 446 kts | 311° |
| 2026-05-06 22:00 | 19.32432 | 117.45158 | 39916 ft | 445 kts | 311° |
| 2026-05-06 22:00 | 19.36599 | 117.40379 | 39905 ft | 444 kts | 311° |
| 2026-05-06 22:01 | 19.40785 | 117.35573 | 39915 ft | 444 kts | 311° |
| 2026-05-06 22:01 | 19.44974 | 117.30761 | 39913 ft | 444 kts | 311° |
| 2026-05-06 22:02 | 19.49159 | 117.25948 | 39917 ft | 444 kts | 311° |
| 2026-05-06 22:02 | 19.53318 | 117.21162 | 39911 ft | 444 kts | 311° |
| 2026-05-06 22:03 | 19.57502 | 117.16342 | 39917 ft | 444 kts | 311° |
| 2026-05-06 22:03 | 19.61677 | 117.11530 | 39919 ft | 443 kts | 311° |
| 2026-05-06 22:04 | 19.65843 | 117.06724 | 39922 ft | 442 kts | 311° |
| 2026-05-06 22:04 | 19.69969 | 117.01960 | 39913 ft | 441 kts | 311° |
| 2026-05-06 22:05 | 19.74123 | 116.97150 | 39914 ft | 442 kts | 311° |
| 2026-05-06 22:05 | 19.78278 | 116.92351 | 39927 ft | 441 kts | 311° |
| 2026-05-06 22:06 | 19.82430 | 116.87549 | 39916 ft | 441 kts | 311° |
| 2026-05-06 22:06 | 19.86578 | 116.82743 | 39923 ft | 441 kts | 311° |
| 2026-05-06 22:07 | 19.90690 | 116.77976 | 39920 ft | 440 kts | 311° |
| 2026-05-06 22:07 | 19.94826 | 116.73176 | 39926 ft | 440 kts | 311° |
| 2026-05-06 22:08 | 19.98967 | 116.68367 | 39921 ft | 441 kts | 311° |
| 2026-05-06 22:08 | 20.03110 | 116.63576 | 39919 ft | 441 kts | 311° |
| 2026-05-06 22:09 | 20.07225 | 116.58814 | 39921 ft | 440 kts | 311° |
| 2026-05-06 22:09 | 20.11366 | 116.54021 | 39928 ft | 440 kts | 311° |
| 2026-05-06 22:10 | 20.15514 | 116.49217 | 39922 ft | 440 kts | 311° |
| 2026-05-06 22:10 | 20.19657 | 116.44414 | 39926 ft | 440 kts | 311° |
| 2026-05-06 22:11 | 20.23772 | 116.39640 | 39919 ft | 440 kts | 311° |
| 2026-05-06 22:11 | 20.27913 | 116.34833 | 39924 ft | 440 kts | 311° |
| 2026-05-06 22:12 | 20.32049 | 116.30025 | 39923 ft | 440 kts | 311° |
| 2026-05-06 22:12 | 20.36188 | 116.25211 | 39919 ft | 440 kts | 311° |
| 2026-05-06 22:13 | 20.40319 | 116.20403 | 39918 ft | 440 kts | 311° |
| 2026-05-06 22:13 | 20.44420 | 116.15624 | 39921 ft | 440 kts | 311° |
| 2026-05-06 22:14 | 20.48550 | 116.10807 | 39924 ft | 440 kts | 311° |
| 2026-05-06 22:14 | 20.52676 | 116.05991 | 39934 ft | 440 kts | 311° |
| 2026-05-06 22:15 | 20.56801 | 116.01172 | 39929 ft | 440 kts | 311° |
| 2026-05-06 22:15 | 20.60903 | 115.96376 | 39924 ft | 440 kts | 311° |
| 2026-05-06 22:16 | 20.65026 | 115.91552 | 39929 ft | 439 kts | 311° |
| 2026-05-06 22:16 | 20.69142 | 115.86731 | 39933 ft | 439 kts | 311° |
| 2026-05-06 22:17 | 20.73248 | 115.81917 | 39929 ft | 438 kts | 311° |
| 2026-05-06 22:17 | 20.77319 | 115.77141 | 39933 ft | 437 kts | 311° |
| 2026-05-06 22:18 | 20.81415 | 115.72332 | 39935 ft | 437 kts | 311° |
| 2026-05-06 22:18 | 20.85512 | 115.67516 | 39940 ft | 437 kts | 311° |
| 2026-05-06 22:19 | 20.89601 | 115.62706 | 39833 ft | 437 kts | 311° |
| 2026-05-06 22:19 | 20.91637 | 115.60311 | 39600 ft | 433 kts | 311° |
| 2026-05-06 22:19 | 20.93654 | 115.57935 | 39371 ft | 430 kts | 311° |
| 2026-05-06 22:20 | 20.95637 | 115.55599 | 39145 ft | 430 kts | 311° |
| 2026-05-06 22:20 | 20.97644 | 115.53234 | 38780 ft | 428 kts | 311° |
| 2026-05-06 22:20 | 20.99648 | 115.50871 | 38225 ft | 430 kts | 311° |
| 2026-05-06 22:20 | 21.01654 | 115.48504 | 37666 ft | 430 kts | 311° |
| 2026-05-06 22:21 | 21.03666 | 115.46129 | 37109 ft | 431 kts | 311° |
| 2026-05-06 22:21 | 21.05684 | 115.43747 | 36545 ft | 432 kts | 311° |
| 2026-05-06 22:21 | 21.07705 | 115.41358 | 35956 ft | 434 kts | 311° |
| 2026-05-06 22:21 | 21.09730 | 115.38961 | 35339 ft | 435 kts | 311° |
| 2026-05-06 22:22 | 21.11773 | 115.36545 | 34658 ft | 438 kts | 311° |
| 2026-05-06 22:22 | 21.13797 | 115.34152 | 33993 ft | 441 kts | 311° |
| 2026-05-06 22:22 | 21.15861 | 115.31711 | 33222 ft | 444 kts | 311° |
| 2026-05-06 22:22 | 21.17939 | 115.29252 | 32488 ft | 446 kts | 311° |
| 2026-05-06 22:23 | 21.20014 | 115.26795 | 31736 ft | 448 kts | 311° |
| 2026-05-06 22:23 | 21.22108 | 115.24314 | 31120 ft | 447 kts | 311° |
| 2026-05-06 22:23 | 21.24183 | 115.21853 | 30621 ft | 444 kts | 311° |
| 2026-05-06 22:23 | 21.26242 | 115.19412 | 30115 ft | 441 kts | 311° |
| 2026-05-06 22:24 | 21.28294 | 115.16977 | 29554 ft | 437 kts | 311° |
| 2026-05-06 22:24 | 21.30290 | 115.14607 | 29014 ft | 433 kts | 311° |
| 2026-05-06 22:24 | 21.32295 | 115.12226 | 28487 ft | 429 kts | 311° |
| 2026-05-06 22:24 | 21.34291 | 115.09855 | 27956 ft | 426 kts | 311° |
| 2026-05-06 22:25 | 21.36268 | 115.07506 | 27428 ft | 423 kts | 311° |
| 2026-05-06 22:25 | 21.38231 | 115.05174 | 26930 ft | 420 kts | 311° |
| 2026-05-06 22:25 | 21.40188 | 115.02846 | 26418 ft | 417 kts | 310° |
| 2026-05-06 22:25 | 21.42127 | 115.00539 | 25881 ft | 415 kts | 310° |
| 2026-05-06 22:26 | 21.44055 | 114.98242 | 25353 ft | 414 kts | 310° |
| 2026-05-06 22:26 | 21.45978 | 114.95952 | 24842 ft | 411 kts | 310° |
| 2026-05-06 22:26 | 21.47859 | 114.93711 | 24323 ft | 410 kts | 310° |
| 2026-05-06 22:26 | 21.49766 | 114.91438 | 23825 ft | 408 kts | 310° |
| 2026-05-06 22:27 | 21.51660 | 114.89178 | 23257 ft | 407 kts | 310° |
| 2026-05-06 22:27 | 21.53548 | 114.86926 | 22722 ft | 404 kts | 310° |
| 2026-05-06 22:27 | 21.55414 | 114.84696 | 22211 ft | 400 kts | 310° |
| 2026-05-06 22:27 | 21.57267 | 114.82484 | 21706 ft | 397 kts | 310° |
| 2026-05-06 22:28 | 21.59104 | 114.80290 | 21194 ft | 394 kts | 310° |
| 2026-05-06 22:28 | 21.60930 | 114.78108 | 20701 ft | 391 kts | 309° |
| 2026-05-06 22:28 | 21.62746 | 114.75937 | 20196 ft | 389 kts | 309° |
| 2026-05-06 22:28 | 21.64548 | 114.73782 | 19709 ft | 387 kts | 309° |
| 2026-05-06 22:29 | 21.66320 | 114.71663 | 19223 ft | 385 kts | 309° |
| 2026-05-06 22:29 | 21.68106 | 114.69524 | 18717 ft | 384 kts | 309° |
| 2026-05-06 22:29 | 21.69866 | 114.67369 | 18200 ft | 384 kts | 309° |
| 2026-05-06 22:29 | 21.71616 | 114.65208 | 17650 ft | 382 kts | 309° |
| 2026-05-06 22:30 | 21.73356 | 114.63063 | 17152 ft | 379 kts | 309° |
| 2026-05-06 22:30 | 21.75081 | 114.60939 | 16656 ft | 375 kts | 309° |
| 2026-05-06 22:30 | 21.76792 | 114.58832 | 16167 ft | 373 kts | 309° |
| 2026-05-06 22:30 | 21.78492 | 114.56739 | 15680 ft | 371 kts | 309° |
| 2026-05-06 22:31 | 21.80180 | 114.54659 | 15387 ft | 363 kts | 309° |
| 2026-05-06 22:31 | 21.81811 | 114.52654 | 15281 ft | 348 kts | 309° |
| 2026-05-06 22:31 | 21.83350 | 114.50764 | 15147 ft | 324 kts | 309° |
| 2026-05-06 22:31 | 21.84765 | 114.49025 | 15012 ft | 303 kts | 308° |
| 2026-05-06 22:32 | 21.86117 | 114.47361 | 14773 ft | 291 kts | 308° |
| 2026-05-06 22:32 | 21.87439 | 114.45731 | 14397 ft | 289 kts | 308° |
| 2026-05-06 22:32 | 21.88759 | 114.44100 | 14056 ft | 289 kts | 308° |
| 2026-05-06 22:32 | 21.90101 | 114.42451 | 13792 ft | 300 kts | 308° |
| 2026-05-06 22:33 | 21.91498 | 114.40722 | 13719 ft | 310 kts | 308° |
| 2026-05-06 22:33 | 21.92903 | 114.38983 | 13557 ft | 306 kts | 308° |
| 2026-05-06 22:33 | 21.94304 | 114.37252 | 13192 ft | 306 kts | 308° |
| 2026-05-06 22:33 | 21.95682 | 114.35549 | 12881 ft | 305 kts | 308° |
| 2026-05-06 22:34 | 21.97072 | 114.33832 | 12560 ft | 304 kts | 308° |
| 2026-05-06 22:34 | 21.98456 | 114.32121 | 12272 ft | 301 kts | 308° |
| 2026-05-06 22:34 | 21.99829 | 114.30425 | 12023 ft | 301 kts | 308° |
| 2026-05-06 22:34 | 22.01202 | 114.28726 | 11777 ft | 299 kts | 308° |
| 2026-05-06 22:35 | 22.02564 | 114.27041 | 11538 ft | 298 kts | 308° |
| 2026-05-06 22:35 | 22.03927 | 114.25355 | 11308 ft | 297 kts | 308° |
| 2026-05-06 22:35 | 22.05280 | 114.23681 | 11047 ft | 296 kts | 308° |
| 2026-05-06 22:35 | 22.06627 | 114.22014 | 10792 ft | 294 kts | 308° |
| 2026-05-06 22:36 | 22.07967 | 114.20352 | 10546 ft | 294 kts | 308° |
| 2026-05-06 22:36 | 22.09285 | 114.18720 | 10303 ft | 292 kts | 308° |
| 2026-05-06 22:36 | 22.10619 | 114.17068 | 10091 ft | 292 kts | 308° |
| 2026-05-06 22:36 | 22.11947 | 114.15423 | 9842 ft | 289 kts | 308° |
| 2026-05-06 22:37 | 22.13270 | 114.13784 | 9567 ft | 290 kts | 308° |
| 2026-05-06 22:37 | 22.14586 | 114.12151 | 9373 ft | 285 kts | 308° |
| 2026-05-06 22:37 | 22.15871 | 114.10558 | 9179 ft | 279 kts | 308° |
| 2026-05-06 22:37 | 22.17142 | 114.08980 | 8951 ft | 278 kts | 308° |
| 2026-05-06 22:38 | 22.18411 | 114.07404 | 8761 ft | 278 kts | 308° |
| 2026-05-06 22:38 | 22.19660 | 114.05852 | 8542 ft | 276 kts | 308° |
| 2026-05-06 22:38 | 22.20915 | 114.04294 | 8291 ft | 276 kts | 308° |
| 2026-05-06 22:38 | 22.22054 | 114.02879 | 8090 ft | 275 kts | 308° |
| 2026-05-06 22:39 | 22.23113 | 114.01188 | 7721 ft | 270 kts | 286° |
| 2026-05-06 22:39 | 22.23192 | 113.99217 | 7376 ft | 265 kts | 254° |
| 2026-05-06 22:39 | 22.22666 | 113.97324 | 7101 ft | 262 kts | 252° |
| 2026-05-06 22:39 | 22.22229 | 113.95444 | 6957 ft | 254 kts | 257° |
| 2026-05-06 22:40 | 22.21966 | 113.93596 | 6853 ft | 246 kts | 266° |
| 2026-05-06 22:40 | 22.22362 | 113.91843 | 6708 ft | 243 kts | 301° |
| 2026-05-06 22:40 | 22.23649 | 113.90724 | 6563 ft | 241 kts | 340° |
| 2026-05-06 22:40 | 22.25266 | 113.90506 | 6488 ft | 235 kts | 359° |
| 2026-05-06 22:41 | 22.28411 | 113.90681 | 6323 ft | 219 kts | 8° |
| 2026-05-06 22:41 | 22.29762 | 113.91336 | 6157 ft | 210 kts | 39° |
| 2026-05-06 22:41 | 22.30830 | 113.92352 | 5937 ft | 200 kts | 44° |
| 2026-05-06 22:42 | 22.31612 | 113.93550 | 5558 ft | 195 kts | 76° |
| 2026-05-06 22:42 | 22.31803 | 113.94921 | 5448 ft | 176 kts | 88° |
| 2026-05-06 22:42 | 22.31878 | 113.96225 | 5152 ft | 175 kts | 89° |
| 2026-05-06 22:42 | 22.31945 | 113.97557 | 4776 ft | 179 kts | 89° |
| 2026-05-06 22:43 | 22.32020 | 113.98864 | 4499 ft | 175 kts | 88° |
| 2026-05-06 22:43 | 22.32096 | 114.00169 | 4179 ft | 173 kts | 89° |
| 2026-05-06 22:43 | 22.32144 | 114.01458 | 3861 ft | 170 kts | 91° |
| 2026-05-06 22:43 | 22.32225 | 114.02742 | 3519 ft | 173 kts | 89° |
| 2026-05-06 22:44 | 22.32319 | 114.03988 | 3367 ft | 158 kts | 89° |
| 2026-05-06 22:44 | 22.32391 | 114.05138 | 3113 ft | 150 kts | 90° |
| 2026-05-06 22:44 | 22.32453 | 114.06243 | 2857 ft | 143 kts | 91° |
| 2026-05-06 22:44 | 22.32514 | 114.07290 | 2569 ft | 138 kts | 88° |
| 2026-05-06 22:45 | 22.32574 | 114.08284 | 2279 ft | 133 kts | 89° |
| 2026-05-06 22:45 | 22.32635 | 114.09271 | 2020 ft | 128 kts | 87° |
| 2026-05-06 22:45 | 22.32699 | 114.10212 | 1992 ft | 126 kts | 86° |
| 2026-05-06 22:45 | 22.32759 | 114.11173 | 1994 ft | 130 kts | 86° |
| 2026-05-06 22:46 | 22.32822 | 114.12136 | 1999 ft | 129 kts | 88° |
| 2026-05-06 22:46 | 22.32883 | 114.13099 | 1977 ft | 130 kts | 86° |
| 2026-05-06 22:46 | 22.32947 | 114.14073 | 1998 ft | 130 kts | 87° |